<?xml version="1.0" encoding="UTF-8" standalone="no" ?>
<gpx xmlns="http://www.topografix.com/GPX/1/1" xmlns:xsi="http://www.w3.org/2001/XMLSchema-instance" xsi:schemaLocation="http://www.topografix.com/GPX/1/1 http://www.topografix.com/GPX/1/1/gpx.xsd" version="1.1" creator="VisuGPX - https://www.visugpx.com">
  <metadata>
    <name>pont 2015</name>
  </metadata>
  <wpt lat="50.33551" lon="6.01915">
    <ele>426.652344</ele>
    <name><![CDATA[15/60]]></name>
    <desc><![CDATA[Route Locale]]></desc>
    <cmt><![CDATA[Route Locale]]></cmt>
  </wpt>
  <wpt lat="50.35909" lon="6.05814">
    <ele>435.832031</ele>
    <name><![CDATA[28/60]]></name>
    <desc><![CDATA[Conifères]]></desc>
    <cmt><![CDATA[Conifères]]></cmt>
  </wpt>
  <wpt lat="50.35909" lon="6.05814">
    <ele>435.832031</ele>
    <name><![CDATA[28/60-15/30-45]]></name>
    <desc><![CDATA[Conifères]]></desc>
    <cmt><![CDATA[Conifères]]></cmt>
  </wpt>
  <wpt lat="50.38466" lon="6.08262">
    <ele>550</ele>
    <name><![CDATA[45/60]]></name>
    <desc><![CDATA[550 m]]></desc>
    <cmt><![CDATA[550 m]]></cmt>
  </wpt>
  <wpt lat="50.35099" lon="6.0357">
    <ele>517.425781</ele>
    <name><![CDATA[photo]]></name>
    <desc><![CDATA[Chemin de Terre]]></desc>
    <cmt><![CDATA[Chemin de Terre]]></cmt>
  </wpt>
  <wpt lat="50.34768" lon="6.0678">
    <ele>490.875</ele>
    <name><![CDATA[photo 1]]></name>
    <desc><![CDATA[Route Locale]]></desc>
    <cmt><![CDATA[Route Locale]]></cmt>
  </wpt>
  <wpt lat="50.37322" lon="6.10564">
    <ele>500</ele>
    <name><![CDATA[photo 2]]></name>
    <desc><![CDATA[500 m]]></desc>
    <cmt><![CDATA[500 m]]></cmt>
  </wpt>
  <wpt lat="50.34774" lon="6.05147">
    <ele>508.875</ele>
    <name><![CDATA[photo 3]]></name>
    <desc><![CDATA[Chemin de Terre]]></desc>
    <cmt><![CDATA[Chemin de Terre]]></cmt>
  </wpt>
  <wpt lat="50.359" lon="6.06903">
    <ele>486.140625</ele>
    <name><![CDATA[photo 4]]></name>
    <desc><![CDATA[Chemin de Terre]]></desc>
    <cmt><![CDATA[Chemin de Terre]]></cmt>
  </wpt>
  <wpt lat="50.35502" lon="6.06338">
    <ele>450</ele>
    <name><![CDATA[photo 5]]></name>
    <desc><![CDATA[450 m]]></desc>
    <cmt><![CDATA[450 m]]></cmt>
  </wpt>
  <trk>
    <name><![CDATA[30km]]></name>
    <trkseg>
      <trkpt lat="50.35856" lon="6.05802">
        <ele>429.592</ele>
        <time>2012-04-13T18:08:57Z</time>
      </trkpt>
      <trkpt lat="50.3582" lon="6.05835">
        <ele>432.703</ele>
        <time>2012-04-13T18:09:02Z</time>
      </trkpt>
      <trkpt lat="50.3582" lon="6.05835">
        <ele>432.703</ele>
        <time>2012-04-13T18:09:02Z</time>
      </trkpt>
      <trkpt lat="50.35815" lon="6.0584">
        <ele>432.685</ele>
        <time>2012-04-13T18:09:03Z</time>
      </trkpt>
      <trkpt lat="50.35808" lon="6.05848">
        <ele>433.53</ele>
        <time>2012-04-13T18:09:04Z</time>
      </trkpt>
      <trkpt lat="50.35797" lon="6.05864">
        <ele>430.79</ele>
        <time>2012-04-13T18:09:06Z</time>
      </trkpt>
      <trkpt lat="50.35792" lon="6.05875">
        <ele>432.639</ele>
        <time>2012-04-13T18:09:07Z</time>
      </trkpt>
      <trkpt lat="50.3577" lon="6.05944">
        <ele>435.15</ele>
        <time>2012-04-13T18:09:10Z</time>
      </trkpt>
      <trkpt lat="50.35765" lon="6.05965">
        <ele>436.315</ele>
        <time>2012-04-13T18:09:11Z</time>
      </trkpt>
      <trkpt lat="50.35762" lon="6.05998">
        <ele>444.5</ele>
        <time>2012-04-13T18:09:11Z</time>
      </trkpt>
      <trkpt lat="50.35735" lon="6.06064">
        <ele>446.234375</ele>
        <time>2012-04-13T18:09:11Z</time>
      </trkpt>
      <trkpt lat="50.35699" lon="6.06119">
        <ele>446.140625</ele>
        <time>2012-04-13T18:09:11Z</time>
      </trkpt>
      <trkpt lat="50.35699" lon="6.06207">
        <ele>450.234375</ele>
        <time>2012-04-13T18:09:11Z</time>
      </trkpt>
      <trkpt lat="50.3569" lon="6.06294">
        <ele>453.59375</ele>
        <time>2012-04-13T18:09:11Z</time>
      </trkpt>
      <trkpt lat="50.35663" lon="6.0636">
        <ele>455.269531</ele>
        <time>2012-04-13T18:09:11Z</time>
      </trkpt>
      <trkpt lat="50.35636" lon="6.06415">
        <ele>457.308594</ele>
        <time>2012-04-13T18:09:11Z</time>
      </trkpt>
      <trkpt lat="50.356" lon="6.06459">
        <ele>459.03125</ele>
        <time>2012-04-13T18:09:11Z</time>
      </trkpt>
      <trkpt lat="50.35555" lon="6.06503">
        <ele>459.828125</ele>
        <time>2012-04-13T18:09:11Z</time>
      </trkpt>
      <trkpt lat="50.35537" lon="6.06568">
        <ele>463.46875</ele>
        <time>2012-04-13T18:09:11Z</time>
      </trkpt>
      <trkpt lat="50.35519" lon="6.06645">
        <ele>465.886719</ele>
        <time>2012-04-13T18:09:11Z</time>
      </trkpt>
      <trkpt lat="50.35492" lon="6.067">
        <ele>465.847656</ele>
        <time>2012-04-13T18:09:11Z</time>
      </trkpt>
      <trkpt lat="50.35474" lon="6.06777">
        <ele>468.503906</ele>
        <time>2012-04-13T18:09:11Z</time>
      </trkpt>
      <trkpt lat="50.35465" lon="6.06865">
        <ele>473.242188</ele>
        <time>2012-04-13T18:09:11Z</time>
      </trkpt>
      <trkpt lat="50.35447" lon="6.0693">
        <ele>475.988281</ele>
        <time>2012-04-13T18:09:11Z</time>
      </trkpt>
      <trkpt lat="50.3542" lon="6.06974">
        <ele>476.097656</ele>
        <time>2012-04-13T18:09:11Z</time>
      </trkpt>
      <trkpt lat="50.3542" lon="6.07029">
        <ele>480.816406</ele>
        <time>2012-04-13T18:09:11Z</time>
      </trkpt>
      <trkpt lat="50.35437" lon="6.07093">
        <ele>478.415</ele>
        <time>2012-04-13T18:09:58Z</time>
      </trkpt>
      <trkpt lat="50.35436" lon="6.07106">
        <ele>481.586</ele>
        <time>2012-04-13T18:10:01Z</time>
      </trkpt>
      <trkpt lat="50.35438" lon="6.07121">
        <ele>484.989</ele>
        <time>2012-04-13T18:10:03Z</time>
      </trkpt>
      <trkpt lat="50.35438" lon="6.07126">
        <ele>484.989</ele>
        <time>2012-04-13T18:10:04Z</time>
      </trkpt>
      <trkpt lat="50.35441" lon="6.07138">
        <ele>487.568</ele>
        <time>2012-04-13T18:10:06Z</time>
      </trkpt>
      <trkpt lat="50.35446" lon="6.07149">
        <ele>490.052</ele>
        <time>2012-04-13T18:10:08Z</time>
      </trkpt>
      <trkpt lat="50.35456" lon="6.07176">
        <ele>491.941</ele>
        <time>2012-04-13T18:10:11Z</time>
      </trkpt>
      <trkpt lat="50.35469" lon="6.07204">
        <ele>494.475</ele>
        <time>2012-04-13T18:10:15Z</time>
      </trkpt>
      <trkpt lat="50.35509" lon="6.07206">
        <ele>497.184</ele>
        <time>2012-04-13T18:10:20Z</time>
      </trkpt>
      <trkpt lat="50.35537" lon="6.07184">
        <ele>495.601</ele>
        <time>2012-04-13T18:10:27Z</time>
      </trkpt>
      <trkpt lat="50.35571" lon="6.07144">
        <ele>492.853</ele>
        <time>2012-04-13T18:10:34Z</time>
      </trkpt>
      <trkpt lat="50.35616" lon="6.0707">
        <ele>491.305</ele>
        <time>2012-04-13T18:10:43Z</time>
      </trkpt>
      <trkpt lat="50.35641" lon="6.07037">
        <ele>490.121</ele>
        <time>2012-04-13T18:10:47Z</time>
      </trkpt>
      <trkpt lat="50.35651" lon="6.07024">
        <ele>490.121</ele>
        <time>2012-04-13T18:10:49Z</time>
      </trkpt>
      <trkpt lat="50.35667" lon="6.06996">
        <ele>488.752</ele>
        <time>2012-04-13T18:10:52Z</time>
      </trkpt>
      <trkpt lat="50.35694" lon="6.06956">
        <ele>485.737</ele>
        <time>2012-04-13T18:10:58Z</time>
      </trkpt>
      <trkpt lat="50.35699" lon="6.06949">
        <ele>485.737</ele>
        <time>2012-04-13T18:10:59Z</time>
      </trkpt>
      <trkpt lat="50.3572" lon="6.06921">
        <ele>483.544</ele>
        <time>2012-04-13T18:11:03Z</time>
      </trkpt>
      <trkpt lat="50.35725" lon="6.06915">
        <ele>483.509</ele>
        <time>2012-04-13T18:11:04Z</time>
      </trkpt>
      <trkpt lat="50.35734" lon="6.06902">
        <ele>483.063</ele>
        <time>2012-04-13T18:11:06Z</time>
      </trkpt>
      <trkpt lat="50.35779" lon="6.06846">
        <ele>480.794</ele>
        <time>2012-04-13T18:11:15Z</time>
      </trkpt>
      <trkpt lat="50.35804" lon="6.06818">
        <ele>478.794</ele>
        <time>2012-04-13T18:11:20Z</time>
      </trkpt>
      <trkpt lat="50.35824" lon="6.06807">
        <ele>480.022</ele>
        <time>2012-04-13T18:11:25Z</time>
      </trkpt>
      <trkpt lat="50.35862" lon="6.06819">
        <ele>481.087</ele>
        <time>2012-04-13T18:11:33Z</time>
      </trkpt>
      <trkpt lat="50.35875" lon="6.06849">
        <ele>481.692</ele>
        <time>2012-04-13T18:11:40Z</time>
      </trkpt>
      <trkpt lat="50.35894" lon="6.06891">
        <ele>483.304</ele>
        <time>2012-04-13T18:11:47Z</time>
      </trkpt>
      <trkpt lat="50.35906" lon="6.06937">
        <ele>483.365</ele>
        <time>2012-04-13T18:11:54Z</time>
      </trkpt>
      <trkpt lat="50.35925" lon="6.06966">
        <ele>483.209</ele>
        <time>2012-04-13T18:12:00Z</time>
      </trkpt>
      <trkpt lat="50.35948" lon="6.06957">
        <ele>480.213</ele>
        <time>2012-04-13T18:12:04Z</time>
      </trkpt>
      <trkpt lat="50.35966" lon="6.06955">
        <ele>477.29</ele>
        <time>2012-04-13T18:12:06Z</time>
      </trkpt>
      <trkpt lat="50.35975" lon="6.06952">
        <ele>476.511</ele>
        <time>2012-04-13T18:12:07Z</time>
      </trkpt>
      <trkpt lat="50.35996" lon="6.06964">
        <ele>477.282</ele>
        <time>2012-04-13T18:12:11Z</time>
      </trkpt>
      <trkpt lat="50.36008" lon="6.07031">
        <ele>478.569</ele>
        <time>2012-04-13T18:12:15Z</time>
      </trkpt>
      <trkpt lat="50.35998" lon="6.07085">
        <ele>480.08</ele>
        <time>2012-04-13T18:12:20Z</time>
      </trkpt>
      <trkpt lat="50.35983" lon="6.07102">
        <ele>481.066</ele>
        <time>2012-04-13T18:12:23Z</time>
      </trkpt>
      <trkpt lat="50.35975" lon="6.07119">
        <ele>481.993</ele>
        <time>2012-04-13T18:12:25Z</time>
      </trkpt>
      <trkpt lat="50.3597" lon="6.07141">
        <ele>483.531</ele>
        <time>2012-04-13T18:12:27Z</time>
      </trkpt>
      <trkpt lat="50.35957" lon="6.07165">
        <ele>485.31</ele>
        <time>2012-04-13T18:12:29Z</time>
      </trkpt>
      <trkpt lat="50.35947" lon="6.07186">
        <ele>488.678</ele>
        <time>2012-04-13T18:12:31Z</time>
      </trkpt>
      <trkpt lat="50.35939" lon="6.07192">
        <ele>488.678</ele>
        <time>2012-04-13T18:12:32Z</time>
      </trkpt>
      <trkpt lat="50.35933" lon="6.0721">
        <ele>490.816</ele>
        <time>2012-04-13T18:12:34Z</time>
      </trkpt>
      <trkpt lat="50.35917" lon="6.07248">
        <ele>493.916</ele>
        <time>2012-04-13T18:12:38Z</time>
      </trkpt>
      <trkpt lat="50.35912" lon="6.07257">
        <ele>493.916</ele>
        <time>2012-04-13T18:12:39Z</time>
      </trkpt>
      <trkpt lat="50.35905" lon="6.07267">
        <ele>494.476</ele>
        <time>2012-04-13T18:12:40Z</time>
      </trkpt>
      <trkpt lat="50.3589" lon="6.07321">
        <ele>497.041</ele>
        <time>2012-04-13T18:12:45Z</time>
      </trkpt>
      <trkpt lat="50.35876" lon="6.07364">
        <ele>498.981</ele>
        <time>2012-04-13T18:12:49Z</time>
      </trkpt>
      <trkpt lat="50.35862" lon="6.07465">
        <ele>499.631</ele>
        <time>2012-04-13T18:12:58Z</time>
      </trkpt>
      <trkpt lat="50.35849" lon="6.07512">
        <ele>502.006</ele>
        <time>2012-04-13T18:13:02Z</time>
      </trkpt>
      <trkpt lat="50.35822" lon="6.07578">
        <ele>505.869</ele>
        <time>2012-04-13T18:13:10Z</time>
      </trkpt>
      <trkpt lat="50.3582" lon="6.07582">
        <ele>505.869</ele>
        <time>2012-04-13T18:13:11Z</time>
      </trkpt>
      <trkpt lat="50.35811" lon="6.07595">
        <ele>507.989</ele>
        <time>2012-04-13T18:13:15Z</time>
      </trkpt>
      <trkpt lat="50.35803" lon="6.07605">
        <ele>509.339</ele>
        <time>2012-04-13T18:13:18Z</time>
      </trkpt>
      <trkpt lat="50.35775" lon="6.07641">
        <ele>510.737</ele>
        <time>2012-04-13T18:13:27Z</time>
      </trkpt>
      <trkpt lat="50.35759" lon="6.07665">
        <ele>512.393</ele>
        <time>2012-04-13T18:13:30Z</time>
      </trkpt>
      <trkpt lat="50.35752" lon="6.0769">
        <ele>513.397</ele>
        <time>2012-04-13T18:13:33Z</time>
      </trkpt>
      <trkpt lat="50.35743" lon="6.07729">
        <ele>513.913</ele>
        <time>2012-04-13T18:13:37Z</time>
      </trkpt>
      <trkpt lat="50.35725" lon="6.07779">
        <ele>517.794</ele>
        <time>2012-04-13T18:13:44Z</time>
      </trkpt>
      <trkpt lat="50.35721" lon="6.07797">
        <ele>519.75</ele>
        <time>2012-04-13T18:13:46Z</time>
      </trkpt>
      <trkpt lat="50.35718" lon="6.0781">
        <ele>520.669</ele>
        <time>2012-04-13T18:13:50Z</time>
      </trkpt>
      <trkpt lat="50.3571" lon="6.07839">
        <ele>522.735</ele>
        <time>2012-04-13T18:14:02Z</time>
      </trkpt>
      <trkpt lat="50.35697" lon="6.07877">
        <ele>525.88</ele>
        <time>2012-04-13T18:14:17Z</time>
      </trkpt>
      <trkpt lat="50.35697" lon="6.07882">
        <ele>526.764</ele>
        <time>2012-04-13T18:14:22Z</time>
      </trkpt>
      <trkpt lat="50.35703" lon="6.07935">
        <ele>529.929</ele>
        <time>2012-04-13T18:14:38Z</time>
      </trkpt>
      <trkpt lat="50.35703" lon="6.0794">
        <ele>529.907</ele>
        <time>2012-04-13T18:14:39Z</time>
      </trkpt>
      <trkpt lat="50.35705" lon="6.07969">
        <ele>530.447</ele>
        <time>2012-04-13T18:14:47Z</time>
      </trkpt>
      <trkpt lat="50.35699" lon="6.07978">
        <ele>531.111</ele>
        <time>2012-04-13T18:14:49Z</time>
      </trkpt>
      <trkpt lat="50.35714" lon="6.08044">
        <ele>530.44</ele>
        <time>2012-04-13T18:14:58Z</time>
      </trkpt>
      <trkpt lat="50.35718" lon="6.08135">
        <ele>531.264</ele>
        <time>2012-04-13T18:15:02Z</time>
      </trkpt>
      <trkpt lat="50.35728" lon="6.08161">
        <ele>531.38</ele>
        <time>2012-04-13T18:15:04Z</time>
      </trkpt>
      <trkpt lat="50.35727" lon="6.08197">
        <ele>532.884</ele>
        <time>2012-04-13T18:15:07Z</time>
      </trkpt>
      <trkpt lat="50.35725" lon="6.0822">
        <ele>533.175</ele>
        <time>2012-04-13T18:15:09Z</time>
      </trkpt>
      <trkpt lat="50.35728" lon="6.08245">
        <ele>535.077</ele>
        <time>2012-04-13T18:15:12Z</time>
      </trkpt>
      <trkpt lat="50.35731" lon="6.08282">
        <ele>536.824</ele>
        <time>2012-04-13T18:15:15Z</time>
      </trkpt>
      <trkpt lat="50.35726" lon="6.08299">
        <ele>539.733</ele>
        <time>2012-04-13T18:15:18Z</time>
      </trkpt>
      <trkpt lat="50.35759" lon="6.08377">
        <ele>541.286</ele>
        <time>2012-04-13T18:15:25Z</time>
      </trkpt>
      <trkpt lat="50.3577" lon="6.08407">
        <ele>546.90625</ele>
        <time>2012-04-13T18:15:25Z</time>
      </trkpt>
      <trkpt lat="50.35656" lon="6.08714">
        <ele>566.378906</ele>
        <time>2012-04-13T18:15:25Z</time>
      </trkpt>
      <trkpt lat="50.35594" lon="6.08776">
        <ele>567.3125</ele>
        <time>2012-04-13T18:15:25Z</time>
      </trkpt>
      <trkpt lat="50.35594" lon="6.0886">
        <ele>569.96875</ele>
        <time>2012-04-13T18:15:25Z</time>
      </trkpt>
      <trkpt lat="50.35632" lon="6.08819">
        <ele>561.96</ele>
        <time>2012-04-13T18:24:07Z</time>
      </trkpt>
      <trkpt lat="50.35626" lon="6.08902">
        <ele>559.801</ele>
        <time>2012-04-13T18:24:13Z</time>
      </trkpt>
      <trkpt lat="50.35628" lon="6.0894">
        <ele>559.45</ele>
        <time>2012-04-13T18:24:15Z</time>
      </trkpt>
      <trkpt lat="50.35624" lon="6.09027">
        <ele>558.469</ele>
        <time>2012-04-13T18:24:19Z</time>
      </trkpt>
      <trkpt lat="50.35586" lon="6.09156">
        <ele>561.241</ele>
        <time>2012-04-13T18:24:26Z</time>
      </trkpt>
      <trkpt lat="50.35575" lon="6.09181">
        <ele>566.896</ele>
        <time>2012-04-13T18:24:29Z</time>
      </trkpt>
      <trkpt lat="50.3561" lon="6.09237">
        <ele>569.504</ele>
        <time>2012-04-13T18:24:36Z</time>
      </trkpt>
      <trkpt lat="50.35649" lon="6.09273">
        <ele>572.997</ele>
        <time>2012-04-13T18:24:40Z</time>
      </trkpt>
      <trkpt lat="50.35664" lon="6.09284">
        <ele>572.997</ele>
        <time>2012-04-13T18:24:41Z</time>
      </trkpt>
      <trkpt lat="50.35741" lon="6.09344">
        <ele>576.429</ele>
        <time>2012-04-13T18:24:47Z</time>
      </trkpt>
      <trkpt lat="50.35748" lon="6.09357">
        <ele>576.429</ele>
        <time>2012-04-13T18:24:48Z</time>
      </trkpt>
      <trkpt lat="50.35768" lon="6.09372">
        <ele>578.033</ele>
        <time>2012-04-13T18:24:50Z</time>
      </trkpt>
      <trkpt lat="50.3578" lon="6.09382">
        <ele>583.645</ele>
        <time>2012-04-13T18:24:52Z</time>
      </trkpt>
      <trkpt lat="50.35798" lon="6.09386">
        <ele>586.026</ele>
        <time>2012-04-13T18:24:55Z</time>
      </trkpt>
      <trkpt lat="50.35743" lon="6.09428">
        <ele>586.433</ele>
        <time>2012-04-13T18:25:03Z</time>
      </trkpt>
      <trkpt lat="50.35727" lon="6.09456">
        <ele>585.817</ele>
        <time>2012-04-13T18:25:09Z</time>
      </trkpt>
      <trkpt lat="50.35729" lon="6.09469">
        <ele>584.216</ele>
        <time>2012-04-13T18:25:11Z</time>
      </trkpt>
      <trkpt lat="50.35736" lon="6.0952">
        <ele>584.628</ele>
        <time>2012-04-13T18:25:19Z</time>
      </trkpt>
      <trkpt lat="50.35746" lon="6.09542">
        <ele>583.159</ele>
        <time>2012-04-13T18:25:24Z</time>
      </trkpt>
      <trkpt lat="50.35758" lon="6.0957">
        <ele>582.277</ele>
        <time>2012-04-13T18:25:28Z</time>
      </trkpt>
      <trkpt lat="50.35777" lon="6.09579">
        <ele>582.935</ele>
        <time>2012-04-13T18:25:32Z</time>
      </trkpt>
      <trkpt lat="50.35813" lon="6.09584">
        <ele>583.849</ele>
        <time>2012-04-13T18:25:39Z</time>
      </trkpt>
      <trkpt lat="50.35844" lon="6.09608">
        <ele>582.908</ele>
        <time>2012-04-13T18:25:45Z</time>
      </trkpt>
      <trkpt lat="50.35886" lon="6.0963">
        <ele>581.925</ele>
        <time>2012-04-13T18:25:55Z</time>
      </trkpt>
      <trkpt lat="50.35891" lon="6.0963">
        <ele>581.032</ele>
        <time>2012-04-13T18:25:56Z</time>
      </trkpt>
      <trkpt lat="50.35877" lon="6.09663">
        <ele>579.111</ele>
        <time>2012-04-13T18:26:02Z</time>
      </trkpt>
      <trkpt lat="50.35837" lon="6.09735">
        <ele>575.206</ele>
        <time>2012-04-13T18:26:10Z</time>
      </trkpt>
      <trkpt lat="50.35827" lon="6.09758">
        <ele>575.206</ele>
        <time>2012-04-13T18:26:12Z</time>
      </trkpt>
      <trkpt lat="50.35823" lon="6.09772">
        <ele>571.94</ele>
        <time>2012-04-13T18:26:13Z</time>
      </trkpt>
      <trkpt lat="50.3582" lon="6.09784">
        <ele>571.94</ele>
        <time>2012-04-13T18:26:14Z</time>
      </trkpt>
      <trkpt lat="50.35809" lon="6.09806">
        <ele>570.672</ele>
        <time>2012-04-13T18:26:16Z</time>
      </trkpt>
      <trkpt lat="50.358" lon="6.09831">
        <ele>569.197</ele>
        <time>2012-04-13T18:26:18Z</time>
      </trkpt>
      <trkpt lat="50.3579" lon="6.09855">
        <ele>565.789</ele>
        <time>2012-04-13T18:26:20Z</time>
      </trkpt>
      <trkpt lat="50.35785" lon="6.09867">
        <ele>565.789</ele>
        <time>2012-04-13T18:26:21Z</time>
      </trkpt>
      <trkpt lat="50.35765" lon="6.09941">
        <ele>564.737</ele>
        <time>2012-04-13T18:26:29Z</time>
      </trkpt>
      <trkpt lat="50.35789" lon="6.0997">
        <ele>564.967</ele>
        <time>2012-04-13T18:26:34Z</time>
      </trkpt>
      <trkpt lat="50.35828" lon="6.10004">
        <ele>565.424</ele>
        <time>2012-04-13T18:26:40Z</time>
      </trkpt>
      <trkpt lat="50.35895" lon="6.1006">
        <ele>565.266</ele>
        <time>2012-04-13T18:26:50Z</time>
      </trkpt>
      <trkpt lat="50.35911" lon="6.10072">
        <ele>566.558</ele>
        <time>2012-04-13T18:26:52Z</time>
      </trkpt>
      <trkpt lat="50.35922" lon="6.10087">
        <ele>567.319</ele>
        <time>2012-04-13T18:26:56Z</time>
      </trkpt>
      <trkpt lat="50.35914" lon="6.10105">
        <ele>565.604</ele>
        <time>2012-04-13T18:26:58Z</time>
      </trkpt>
      <trkpt lat="50.35901" lon="6.10143">
        <ele>563.886</ele>
        <time>2012-04-13T18:27:01Z</time>
      </trkpt>
      <trkpt lat="50.35888" lon="6.10178">
        <ele>560.739</ele>
        <time>2012-04-13T18:27:04Z</time>
      </trkpt>
      <trkpt lat="50.35852" lon="6.10268">
        <ele>559.606</ele>
        <time>2012-04-13T18:27:13Z</time>
      </trkpt>
      <trkpt lat="50.35859" lon="6.10312">
        <ele>559.196</ele>
        <time>2012-04-13T18:27:19Z</time>
      </trkpt>
      <trkpt lat="50.35858" lon="6.10358">
        <ele>556.781</ele>
        <time>2012-04-13T18:27:25Z</time>
      </trkpt>
      <trkpt lat="50.35852" lon="6.10391">
        <ele>554.923</ele>
        <time>2012-04-13T18:27:28Z</time>
      </trkpt>
      <trkpt lat="50.35835" lon="6.10463">
        <ele>553.547</ele>
        <time>2012-04-13T18:27:35Z</time>
      </trkpt>
      <trkpt lat="50.35824" lon="6.10507">
        <ele>552.564</ele>
        <time>2012-04-13T18:27:40Z</time>
      </trkpt>
      <trkpt lat="50.35849" lon="6.10529">
        <ele>551.01</ele>
        <time>2012-04-13T18:27:45Z</time>
      </trkpt>
      <trkpt lat="50.35933" lon="6.10532">
        <ele>547.522</ele>
        <time>2012-04-13T18:27:52Z</time>
      </trkpt>
      <trkpt lat="50.35945" lon="6.10534">
        <ele>547.522</ele>
        <time>2012-04-13T18:27:53Z</time>
      </trkpt>
      <trkpt lat="50.35958" lon="6.10536">
        <ele>544.188</ele>
        <time>2012-04-13T18:27:54Z</time>
      </trkpt>
      <trkpt lat="50.35976" lon="6.10539">
        <ele>543.194</ele>
        <time>2012-04-13T18:27:56Z</time>
      </trkpt>
      <trkpt lat="50.35983" lon="6.10542">
        <ele>544.679</ele>
        <time>2012-04-13T18:27:57Z</time>
      </trkpt>
      <trkpt lat="50.35995" lon="6.10551">
        <ele>546.021</ele>
        <time>2012-04-13T18:28:00Z</time>
      </trkpt>
      <trkpt lat="50.35993" lon="6.10559">
        <ele>545.485</ele>
        <time>2012-04-13T18:28:01Z</time>
      </trkpt>
      <trkpt lat="50.35981" lon="6.10615">
        <ele>544.663</ele>
        <time>2012-04-13T18:28:07Z</time>
      </trkpt>
      <trkpt lat="50.35967" lon="6.10658">
        <ele>548.03</ele>
        <time>2012-04-13T18:28:11Z</time>
      </trkpt>
      <trkpt lat="50.35961" lon="6.10674">
        <ele>550.093</ele>
        <time>2012-04-13T18:28:14Z</time>
      </trkpt>
      <trkpt lat="50.35954" lon="6.10693">
        <ele>551.618</ele>
        <time>2012-04-13T18:28:17Z</time>
      </trkpt>
      <trkpt lat="50.35929" lon="6.10755">
        <ele>554.07</ele>
        <time>2012-04-13T18:28:29Z</time>
      </trkpt>
      <trkpt lat="50.35907" lon="6.10782">
        <ele>551.705</ele>
        <time>2012-04-13T18:28:39Z</time>
      </trkpt>
      <trkpt lat="50.35892" lon="6.10796">
        <ele>547.776</ele>
        <time>2012-04-13T18:28:48Z</time>
      </trkpt>
      <trkpt lat="50.35881" lon="6.10805">
        <ele>543.886</ele>
        <time>2012-04-13T18:28:53Z</time>
      </trkpt>
      <trkpt lat="50.35877" lon="6.10808">
        <ele>543.886</ele>
        <time>2012-04-13T18:28:54Z</time>
      </trkpt>
      <trkpt lat="50.35868" lon="6.10815">
        <ele>542.444</ele>
        <time>2012-04-13T18:28:57Z</time>
      </trkpt>
      <trkpt lat="50.35865" lon="6.10817">
        <ele>539.093</ele>
        <time>2012-04-13T18:28:59Z</time>
      </trkpt>
      <trkpt lat="50.35861" lon="6.10823">
        <ele>537.735</ele>
        <time>2012-04-13T18:29:01Z</time>
      </trkpt>
      <trkpt lat="50.35858" lon="6.10834">
        <ele>534.916</ele>
        <time>2012-04-13T18:29:05Z</time>
      </trkpt>
      <trkpt lat="50.35855" lon="6.1085">
        <ele>531.483</ele>
        <time>2012-04-13T18:29:10Z</time>
      </trkpt>
      <trkpt lat="50.35855" lon="6.10854">
        <ele>530.619</ele>
        <time>2012-04-13T18:29:11Z</time>
      </trkpt>
      <trkpt lat="50.35858" lon="6.10863">
        <ele>529.245</ele>
        <time>2012-04-13T18:29:14Z</time>
      </trkpt>
      <trkpt lat="50.35867" lon="6.10882">
        <ele>526.246</ele>
        <time>2012-04-13T18:29:20Z</time>
      </trkpt>
      <trkpt lat="50.35876" lon="6.10882">
        <ele>524.693</ele>
        <time>2012-04-13T18:29:23Z</time>
      </trkpt>
      <trkpt lat="50.3588" lon="6.10881">
        <ele>524.693</ele>
        <time>2012-04-13T18:29:24Z</time>
      </trkpt>
      <trkpt lat="50.35897" lon="6.10891">
        <ele>524.011</ele>
        <time>2012-04-13T18:29:29Z</time>
      </trkpt>
      <trkpt lat="50.35904" lon="6.10896">
        <ele>522.888</ele>
        <time>2012-04-13T18:29:31Z</time>
      </trkpt>
      <trkpt lat="50.35919" lon="6.10911">
        <ele>521.184</ele>
        <time>2012-04-13T18:29:37Z</time>
      </trkpt>
      <trkpt lat="50.35935" lon="6.10912">
        <ele>519.176</ele>
        <time>2012-04-13T18:29:41Z</time>
      </trkpt>
      <trkpt lat="50.35943" lon="6.10915">
        <ele>519.17</ele>
        <time>2012-04-13T18:29:43Z</time>
      </trkpt>
      <trkpt lat="50.35959" lon="6.10921">
        <ele>519.183</ele>
        <time>2012-04-13T18:29:47Z</time>
      </trkpt>
      <trkpt lat="50.35983" lon="6.10934">
        <ele>516.298</ele>
        <time>2012-04-13T18:29:54Z</time>
      </trkpt>
      <trkpt lat="50.36018" lon="6.10947">
        <ele>514.871</ele>
        <time>2012-04-13T18:30:04Z</time>
      </trkpt>
      <trkpt lat="50.36031" lon="6.10948">
        <ele>515.106</ele>
        <time>2012-04-13T18:30:08Z</time>
      </trkpt>
      <trkpt lat="50.36062" lon="6.10972">
        <ele>512.105</ele>
        <time>2012-04-13T18:30:19Z</time>
      </trkpt>
      <trkpt lat="50.36066" lon="6.10973">
        <ele>511.999</ele>
        <time>2012-04-13T18:30:20Z</time>
      </trkpt>
      <trkpt lat="50.36102" lon="6.10977">
        <ele>508.635</ele>
        <time>2012-04-13T18:30:29Z</time>
      </trkpt>
      <trkpt lat="50.36124" lon="6.10979">
        <ele>507.259</ele>
        <time>2012-04-13T18:30:34Z</time>
      </trkpt>
      <trkpt lat="50.36133" lon="6.10982">
        <ele>507.362</ele>
        <time>2012-04-13T18:30:36Z</time>
      </trkpt>
      <trkpt lat="50.36156" lon="6.10991">
        <ele>508.889</ele>
        <time>2012-04-13T18:30:45Z</time>
      </trkpt>
      <trkpt lat="50.36164" lon="6.10984">
        <ele>512.221</ele>
        <time>2012-04-13T18:30:48Z</time>
      </trkpt>
      <trkpt lat="50.36167" lon="6.10979">
        <ele>512.221</ele>
        <time>2012-04-13T18:30:49Z</time>
      </trkpt>
      <trkpt lat="50.36172" lon="6.10969">
        <ele>514.565</ele>
        <time>2012-04-13T18:30:52Z</time>
      </trkpt>
      <trkpt lat="50.36179" lon="6.10964">
        <ele>515.204</ele>
        <time>2012-04-13T18:30:54Z</time>
      </trkpt>
      <trkpt lat="50.36197" lon="6.10952">
        <ele>519.168</ele>
        <time>2012-04-13T18:31:01Z</time>
      </trkpt>
      <trkpt lat="50.36199" lon="6.10952">
        <ele>519.561</ele>
        <time>2012-04-13T18:31:02Z</time>
      </trkpt>
      <trkpt lat="50.36217" lon="6.10962">
        <ele>516.044</ele>
        <time>2012-04-13T18:31:07Z</time>
      </trkpt>
      <trkpt lat="50.36253" lon="6.10975">
        <ele>514.002</ele>
        <time>2012-04-13T18:31:13Z</time>
      </trkpt>
      <trkpt lat="50.36262" lon="6.10984">
        <ele>512.348</ele>
        <time>2012-04-13T18:31:15Z</time>
      </trkpt>
      <trkpt lat="50.36266" lon="6.10987">
        <ele>510.979</ele>
        <time>2012-04-13T18:31:16Z</time>
      </trkpt>
      <trkpt lat="50.36294" lon="6.10995">
        <ele>506.614</ele>
        <time>2012-04-13T18:31:21Z</time>
      </trkpt>
      <trkpt lat="50.36298" lon="6.11">
        <ele>506.614</ele>
        <time>2012-04-13T18:31:22Z</time>
      </trkpt>
      <trkpt lat="50.36315" lon="6.11018">
        <ele>503.921</ele>
        <time>2012-04-13T18:31:26Z</time>
      </trkpt>
      <trkpt lat="50.36331" lon="6.1103">
        <ele>501.535</ele>
        <time>2012-04-13T18:31:29Z</time>
      </trkpt>
      <trkpt lat="50.36349" lon="6.11043">
        <ele>499.429</ele>
        <time>2012-04-13T18:31:33Z</time>
      </trkpt>
      <trkpt lat="50.36368" lon="6.11052">
        <ele>496.869</ele>
        <time>2012-04-13T18:31:37Z</time>
      </trkpt>
      <trkpt lat="50.36384" lon="6.11058">
        <ele>494.623</ele>
        <time>2012-04-13T18:31:40Z</time>
      </trkpt>
      <trkpt lat="50.36391" lon="6.11068">
        <ele>491.939</ele>
        <time>2012-04-13T18:31:42Z</time>
      </trkpt>
      <trkpt lat="50.36405" lon="6.11065">
        <ele>490.427</ele>
        <time>2012-04-13T18:31:45Z</time>
      </trkpt>
      <trkpt lat="50.36422" lon="6.11042">
        <ele>486.818</ele>
        <time>2012-04-13T18:31:48Z</time>
      </trkpt>
      <trkpt lat="50.36459" lon="6.11016">
        <ele>487.692</ele>
        <time>2012-04-13T18:31:52Z</time>
      </trkpt>
      <trkpt lat="50.36478" lon="6.11014">
        <ele>489.193</ele>
        <time>2012-04-13T18:31:54Z</time>
      </trkpt>
      <trkpt lat="50.36495" lon="6.11051">
        <ele>489.072</ele>
        <time>2012-04-13T18:31:58Z</time>
      </trkpt>
      <trkpt lat="50.36536" lon="6.11126">
        <ele>489.428</ele>
        <time>2012-04-13T18:32:04Z</time>
      </trkpt>
      <trkpt lat="50.36541" lon="6.11135">
        <ele>494.858</ele>
        <time>2012-04-13T18:32:05Z</time>
      </trkpt>
      <trkpt lat="50.36548" lon="6.11145">
        <ele>498.373</ele>
        <time>2012-04-13T18:32:07Z</time>
      </trkpt>
      <trkpt lat="50.36551" lon="6.11148">
        <ele>498.373</ele>
        <time>2012-04-13T18:32:08Z</time>
      </trkpt>
      <trkpt lat="50.36564" lon="6.11157">
        <ele>500.148</ele>
        <time>2012-04-13T18:32:10Z</time>
      </trkpt>
      <trkpt lat="50.36566" lon="6.11141">
        <ele>501.913</ele>
        <time>2012-04-13T18:32:12Z</time>
      </trkpt>
      <trkpt lat="50.3658" lon="6.11136">
        <ele>501.913</ele>
        <time>2012-04-13T18:32:14Z</time>
      </trkpt>
      <trkpt lat="50.36587" lon="6.11109">
        <ele>504.149</ele>
        <time>2012-04-13T18:32:17Z</time>
      </trkpt>
      <trkpt lat="50.3659" lon="6.11084">
        <ele>505.837</ele>
        <time>2012-04-13T18:32:19Z</time>
      </trkpt>
      <trkpt lat="50.36596" lon="6.11042">
        <ele>505.914</ele>
        <time>2012-04-13T18:32:22Z</time>
      </trkpt>
      <trkpt lat="50.36601" lon="6.10997">
        <ele>507.232</ele>
        <time>2012-04-13T18:32:25Z</time>
      </trkpt>
      <trkpt lat="50.366" lon="6.10968">
        <ele>510.318</ele>
        <time>2012-04-13T18:32:27Z</time>
      </trkpt>
      <trkpt lat="50.36602" lon="6.1094">
        <ele>512.58</ele>
        <time>2012-04-13T18:32:29Z</time>
      </trkpt>
      <trkpt lat="50.36602" lon="6.10925">
        <ele>514.409</ele>
        <time>2012-04-13T18:32:30Z</time>
      </trkpt>
      <trkpt lat="50.36604" lon="6.10896">
        <ele>514.48</ele>
        <time>2012-04-13T18:32:32Z</time>
      </trkpt>
      <trkpt lat="50.36609" lon="6.10841">
        <ele>516.269</ele>
        <time>2012-04-13T18:32:36Z</time>
      </trkpt>
      <trkpt lat="50.36614" lon="6.10775">
        <ele>520.013</ele>
        <time>2012-04-13T18:32:41Z</time>
      </trkpt>
      <trkpt lat="50.3662" lon="6.10748">
        <ele>521.221</ele>
        <time>2012-04-13T18:32:43Z</time>
      </trkpt>
      <trkpt lat="50.36628" lon="6.10646">
        <ele>523.459</ele>
        <time>2012-04-13T18:32:50Z</time>
      </trkpt>
      <trkpt lat="50.3663" lon="6.10636">
        <ele>525.282</ele>
        <time>2012-04-13T18:32:51Z</time>
      </trkpt>
      <trkpt lat="50.36639" lon="6.10602">
        <ele>526.984</ele>
        <time>2012-04-13T18:32:54Z</time>
      </trkpt>
      <trkpt lat="50.36642" lon="6.10593">
        <ele>529.28</ele>
        <time>2012-04-13T18:32:55Z</time>
      </trkpt>
      <trkpt lat="50.36651" lon="6.10595">
        <ele>531.032</ele>
        <time>2012-04-13T18:32:57Z</time>
      </trkpt>
      <trkpt lat="50.36664" lon="6.10595">
        <ele>532.818</ele>
        <time>2012-04-13T18:32:59Z</time>
      </trkpt>
      <trkpt lat="50.36764" lon="6.10615">
        <ele>534.398</ele>
        <time>2012-04-13T18:33:08Z</time>
      </trkpt>
      <trkpt lat="50.36834" lon="6.10621">
        <ele>537.545</ele>
        <time>2012-04-13T18:33:14Z</time>
      </trkpt>
      <trkpt lat="50.36845" lon="6.10621">
        <ele>537.545</ele>
        <time>2012-04-13T18:33:15Z</time>
      </trkpt>
      <trkpt lat="50.36866" lon="6.10618">
        <ele>540.2</ele>
        <time>2012-04-13T18:33:17Z</time>
      </trkpt>
      <trkpt lat="50.36897" lon="6.10598">
        <ele>543.575</ele>
        <time>2012-04-13T18:33:20Z</time>
      </trkpt>
      <trkpt lat="50.36938" lon="6.10532">
        <ele>547.858</ele>
        <time>2012-04-13T18:33:25Z</time>
      </trkpt>
      <trkpt lat="50.36945" lon="6.10471">
        <ele>544.946</ele>
        <time>2012-04-13T18:33:28Z</time>
      </trkpt>
      <trkpt lat="50.36954" lon="6.10409">
        <ele>547.958</ele>
        <time>2012-04-13T18:33:32Z</time>
      </trkpt>
      <trkpt lat="50.36955" lon="6.10389">
        <ele>549.491</ele>
        <time>2012-04-13T18:33:34Z</time>
      </trkpt>
      <trkpt lat="50.36957" lon="6.10376">
        <ele>550.624</ele>
        <time>2012-04-13T18:33:36Z</time>
      </trkpt>
      <trkpt lat="50.3696" lon="6.10369">
        <ele>552.334</ele>
        <time>2012-04-13T18:33:38Z</time>
      </trkpt>
      <trkpt lat="50.36962" lon="6.10366">
        <ele>549.005</ele>
        <time>2012-04-13T18:33:40Z</time>
      </trkpt>
      <trkpt lat="50.36994" lon="6.10377">
        <ele>546.933</ele>
        <time>2012-04-13T18:33:53Z</time>
      </trkpt>
      <trkpt lat="50.37018" lon="6.10403">
        <ele>546.111</ele>
        <time>2012-04-13T18:34:02Z</time>
      </trkpt>
      <trkpt lat="50.37049" lon="6.10419">
        <ele>546.621</ele>
        <time>2012-04-13T18:34:14Z</time>
      </trkpt>
      <trkpt lat="50.37051" lon="6.1042">
        <ele>546.571</ele>
        <time>2012-04-13T18:34:17Z</time>
      </trkpt>
      <trkpt lat="50.37065" lon="6.10426">
        <ele>544.756</ele>
        <time>2012-04-13T18:34:24Z</time>
      </trkpt>
      <trkpt lat="50.37095" lon="6.10456">
        <ele>545.414</ele>
        <time>2012-04-13T18:34:40Z</time>
      </trkpt>
      <trkpt lat="50.37115" lon="6.10471">
        <ele>541.648</ele>
        <time>2012-04-13T18:34:54Z</time>
      </trkpt>
      <trkpt lat="50.37123" lon="6.10482">
        <ele>541.648</ele>
        <time>2012-04-13T18:34:55Z</time>
      </trkpt>
      <trkpt lat="50.37137" lon="6.10491">
        <ele>538.245</ele>
        <time>2012-04-13T18:35:05Z</time>
      </trkpt>
      <trkpt lat="50.37139" lon="6.10492">
        <ele>538.245</ele>
        <time>2012-04-13T18:35:06Z</time>
      </trkpt>
      <trkpt lat="50.37149" lon="6.10495">
        <ele>535.711</ele>
        <time>2012-04-13T18:35:12Z</time>
      </trkpt>
      <trkpt lat="50.37151" lon="6.10488">
        <ele>534.929</ele>
        <time>2012-04-13T18:35:19Z</time>
      </trkpt>
      <trkpt lat="50.37152" lon="6.10479">
        <ele>533.547</ele>
        <time>2012-04-13T18:35:26Z</time>
      </trkpt>
      <trkpt lat="50.37163" lon="6.10489">
        <ele>529.713</ele>
        <time>2012-04-13T18:35:37Z</time>
      </trkpt>
      <trkpt lat="50.37164" lon="6.10492">
        <ele>528.196</ele>
        <time>2012-04-13T18:35:39Z</time>
      </trkpt>
      <trkpt lat="50.37172" lon="6.10516">
        <ele>524.65</ele>
        <time>2012-04-13T18:35:51Z</time>
      </trkpt>
      <trkpt lat="50.37176" lon="6.10522">
        <ele>523.94</ele>
        <time>2012-04-13T18:35:53Z</time>
      </trkpt>
      <trkpt lat="50.37176" lon="6.10524">
        <ele>523.329</ele>
        <time>2012-04-13T18:35:54Z</time>
      </trkpt>
      <trkpt lat="50.37177" lon="6.10535">
        <ele>521.688</ele>
        <time>2012-04-13T18:35:58Z</time>
      </trkpt>
      <trkpt lat="50.37181" lon="6.1054">
        <ele>520.843</ele>
        <time>2012-04-13T18:36:00Z</time>
      </trkpt>
      <trkpt lat="50.37187" lon="6.10542">
        <ele>519.593</ele>
        <time>2012-04-13T18:36:03Z</time>
      </trkpt>
      <trkpt lat="50.37192" lon="6.10547">
        <ele>516.277</ele>
        <time>2012-04-13T18:36:06Z</time>
      </trkpt>
      <trkpt lat="50.37193" lon="6.1055">
        <ele>516.277</ele>
        <time>2012-04-13T18:36:07Z</time>
      </trkpt>
      <trkpt lat="50.37196" lon="6.10548">
        <ele>516.013</ele>
        <time>2012-04-13T18:36:09Z</time>
      </trkpt>
      <trkpt lat="50.37197" lon="6.10551">
        <ele>515.505</ele>
        <time>2012-04-13T18:36:11Z</time>
      </trkpt>
      <trkpt lat="50.37198" lon="6.10549">
        <ele>514.208</ele>
        <time>2012-04-13T18:36:15Z</time>
      </trkpt>
      <trkpt lat="50.37199" lon="6.10545">
        <ele>513</ele>
        <time>2012-04-13T18:36:17Z</time>
      </trkpt>
      <trkpt lat="50.37207" lon="6.10539">
        <ele>509.843</ele>
        <time>2012-04-13T18:36:23Z</time>
      </trkpt>
      <trkpt lat="50.37209" lon="6.10537">
        <ele>509.272</ele>
        <time>2012-04-13T18:36:25Z</time>
      </trkpt>
      <trkpt lat="50.37212" lon="6.10537">
        <ele>506.109</ele>
        <time>2012-04-13T18:36:29Z</time>
      </trkpt>
      <trkpt lat="50.37216" lon="6.10541">
        <ele>504.344</ele>
        <time>2012-04-13T18:36:34Z</time>
      </trkpt>
      <trkpt lat="50.37221" lon="6.10545">
        <ele>502.405</ele>
        <time>2012-04-13T18:36:37Z</time>
      </trkpt>
      <trkpt lat="50.37225" lon="6.10548">
        <ele>501.303</ele>
        <time>2012-04-13T18:36:39Z</time>
      </trkpt>
      <trkpt lat="50.37231" lon="6.10555">
        <ele>496.018</ele>
        <time>2012-04-13T18:36:43Z</time>
      </trkpt>
      <trkpt lat="50.37233" lon="6.10556">
        <ele>496.018</ele>
        <time>2012-04-13T18:36:44Z</time>
      </trkpt>
      <trkpt lat="50.37237" lon="6.10559">
        <ele>494.087</ele>
        <time>2012-04-13T18:36:46Z</time>
      </trkpt>
      <trkpt lat="50.37248" lon="6.10557">
        <ele>490.271</ele>
        <time>2012-04-13T18:36:52Z</time>
      </trkpt>
      <trkpt lat="50.37249" lon="6.10557">
        <ele>490.271</ele>
        <time>2012-04-13T18:36:53Z</time>
      </trkpt>
      <trkpt lat="50.37252" lon="6.10558">
        <ele>488.786</ele>
        <time>2012-04-13T18:36:55Z</time>
      </trkpt>
      <trkpt lat="50.37257" lon="6.10558">
        <ele>487.713</ele>
        <time>2012-04-13T18:36:58Z</time>
      </trkpt>
      <trkpt lat="50.37267" lon="6.10557">
        <ele>486.131</ele>
        <time>2012-04-13T18:37:02Z</time>
      </trkpt>
      <trkpt lat="50.37285" lon="6.1056">
        <ele>483.451</ele>
        <time>2012-04-13T18:37:07Z</time>
      </trkpt>
      <trkpt lat="50.37297" lon="6.10563">
        <ele>481.71</ele>
        <time>2012-04-13T18:37:09Z</time>
      </trkpt>
      <trkpt lat="50.37319" lon="6.10575">
        <ele>480.434</ele>
        <time>2012-04-13T18:37:12Z</time>
      </trkpt>
      <trkpt lat="50.37332" lon="6.10577">
        <ele>479.419</ele>
        <time>2012-04-13T18:37:14Z</time>
      </trkpt>
      <trkpt lat="50.3736" lon="6.10593">
        <ele>477.239</ele>
        <time>2012-04-13T18:37:17Z</time>
      </trkpt>
      <trkpt lat="50.37376" lon="6.1062">
        <ele>475.125</ele>
        <time>2012-04-13T18:37:23Z</time>
      </trkpt>
      <trkpt lat="50.37386" lon="6.10643">
        <ele>473.292</ele>
        <time>2012-04-13T18:37:27Z</time>
      </trkpt>
      <trkpt lat="50.37391" lon="6.1064">
        <ele>472.869</ele>
        <time>2012-04-13T18:37:29Z</time>
      </trkpt>
      <trkpt lat="50.37408" lon="6.1059">
        <ele>470.227</ele>
        <time>2012-04-13T18:37:35Z</time>
      </trkpt>
      <trkpt lat="50.37416" lon="6.10523">
        <ele>470.351</ele>
        <time>2012-04-13T18:37:40Z</time>
      </trkpt>
      <trkpt lat="50.37414" lon="6.10494">
        <ele>470.464</ele>
        <time>2012-04-13T18:37:42Z</time>
      </trkpt>
      <trkpt lat="50.37388" lon="6.10424">
        <ele>469.418</ele>
        <time>2012-04-13T18:37:47Z</time>
      </trkpt>
      <trkpt lat="50.37372" lon="6.10364">
        <ele>467.32</ele>
        <time>2012-04-13T18:37:50Z</time>
      </trkpt>
      <trkpt lat="50.37355" lon="6.10301">
        <ele>464.775</ele>
        <time>2012-04-13T18:37:53Z</time>
      </trkpt>
      <trkpt lat="50.37341" lon="6.10247">
        <ele>465.745</ele>
        <time>2012-04-13T18:37:56Z</time>
      </trkpt>
      <trkpt lat="50.37306" lon="6.10115">
        <ele>463.127</ele>
        <time>2012-04-13T18:38:03Z</time>
      </trkpt>
      <trkpt lat="50.37299" lon="6.10075">
        <ele>464.783</ele>
        <time>2012-04-13T18:38:05Z</time>
      </trkpt>
      <trkpt lat="50.37284" lon="6.10016">
        <ele>466.189</ele>
        <time>2012-04-13T18:38:09Z</time>
      </trkpt>
      <trkpt lat="50.37281" lon="6.09969">
        <ele>467.777</ele>
        <time>2012-04-13T18:38:12Z</time>
      </trkpt>
      <trkpt lat="50.3728" lon="6.09938">
        <ele>466.541</ele>
        <time>2012-04-13T18:38:14Z</time>
      </trkpt>
      <trkpt lat="50.37279" lon="6.09927">
        <ele>479.394531</ele>
        <time>2012-04-13T18:38:14Z</time>
      </trkpt>
      <trkpt lat="50.37229" lon="6.09712">
        <ele>496.457031</ele>
        <time>2012-04-13T18:38:14Z</time>
      </trkpt>
      <trkpt lat="50.3714" lon="6.09628">
        <ele>506.109375</ele>
        <time>2012-04-13T18:38:14Z</time>
      </trkpt>
      <trkpt lat="50.37008" lon="6.09574">
        <ele>515.527344</ele>
        <time>2012-04-13T18:38:14Z</time>
      </trkpt>
      <trkpt lat="50.37021" lon="6.09474">
        <ele>506.410156</ele>
        <time>2012-04-13T18:38:14Z</time>
      </trkpt>
      <trkpt lat="50.36719" lon="6.09037">
        <ele>509.03125</ele>
        <time>2012-04-13T18:38:14Z</time>
      </trkpt>
      <trkpt lat="50.36851" lon="6.08991">
        <ele>487.210938</ele>
        <time>2012-04-13T18:38:14Z</time>
      </trkpt>
      <trkpt lat="50.36939" lon="6.08937">
        <ele>471</ele>
        <time>2012-04-13T18:38:14Z</time>
      </trkpt>
      <trkpt lat="50.37096" lon="6.09175">
        <ele>473.429688</ele>
        <time>2012-04-13T18:38:14Z</time>
      </trkpt>
      <trkpt lat="50.37235" lon="6.0909">
        <ele>447.894531</ele>
        <time>2012-04-13T18:38:14Z</time>
      </trkpt>
      <trkpt lat="50.37222" lon="6.08929">
        <ele>430.777344</ele>
        <time>2012-04-13T18:38:14Z</time>
      </trkpt>
      <trkpt lat="50.37166" lon="6.08822">
        <ele>425.792969</ele>
        <time>2012-04-13T18:38:14Z</time>
      </trkpt>
      <trkpt lat="50.37317" lon="6.08745">
        <ele>393.816406</ele>
        <time>2012-04-13T18:38:14Z</time>
      </trkpt>
      <trkpt lat="50.37348" lon="6.08668">
        <ele>383.980469</ele>
        <time>2012-04-13T18:38:14Z</time>
      </trkpt>
      <trkpt lat="50.37354" lon="6.0867">
        <ele>383.476562</ele>
        <time>2012-04-13T18:38:14Z</time>
      </trkpt>
      <trkpt lat="50.37381" lon="6.08724">
        <ele>382.675781</ele>
        <time>2012-04-13T18:38:14Z</time>
      </trkpt>
      <trkpt lat="50.37408" lon="6.08768">
        <ele>382.5625</ele>
        <time>2012-04-13T18:38:14Z</time>
      </trkpt>
      <trkpt lat="50.37426" lon="6.08834">
        <ele>383.722656</ele>
        <time>2012-04-13T18:38:14Z</time>
      </trkpt>
      <trkpt lat="50.37435" lon="6.08911">
        <ele>384.488281</ele>
        <time>2012-04-13T18:38:14Z</time>
      </trkpt>
      <trkpt lat="50.37426" lon="6.08988">
        <ele>388.632812</ele>
        <time>2012-04-13T18:38:14Z</time>
      </trkpt>
      <trkpt lat="50.37417" lon="6.09075">
        <ele>396.007812</ele>
        <time>2012-04-13T18:38:14Z</time>
      </trkpt>
      <trkpt lat="50.37426" lon="6.09152">
        <ele>397.105469</ele>
        <time>2012-04-13T18:38:14Z</time>
      </trkpt>
      <trkpt lat="50.37435" lon="6.09229">
        <ele>398.941406</ele>
        <time>2012-04-13T18:38:14Z</time>
      </trkpt>
      <trkpt lat="50.37453" lon="6.09295">
        <ele>400.449219</ele>
        <time>2012-04-13T18:38:14Z</time>
      </trkpt>
      <trkpt lat="50.37498" lon="6.09328">
        <ele>393.464844</ele>
        <time>2012-04-13T18:38:14Z</time>
      </trkpt>
      <trkpt lat="50.37552" lon="6.09328">
        <ele>393.234375</ele>
        <time>2012-04-13T18:38:14Z</time>
      </trkpt>
      <trkpt lat="50.3753" lon="6.09206">
        <ele>387.625</ele>
        <time>2012-04-13T18:38:14Z</time>
      </trkpt>
      <trkpt lat="50.37556" lon="6.08998">
        <ele>389.5</ele>
        <time>2012-04-13T18:38:14Z</time>
      </trkpt>
      <trkpt lat="50.37511" lon="6.0873">
        <ele>384.675781</ele>
        <time>2012-04-13T18:38:14Z</time>
      </trkpt>
      <trkpt lat="50.37499" lon="6.08622">
        <ele>386.863281</ele>
        <time>2012-04-13T18:38:14Z</time>
      </trkpt>
      <trkpt lat="50.37455" lon="6.08492">
        <ele>386.484375</ele>
        <time>2012-04-13T18:38:14Z</time>
      </trkpt>
      <trkpt lat="50.37417" lon="6.08338">
        <ele>378.304688</ele>
        <time>2012-04-13T18:38:14Z</time>
      </trkpt>
      <trkpt lat="50.37493" lon="6.07824">
        <ele>381.640625</ele>
        <time>2012-04-13T18:38:14Z</time>
      </trkpt>
      <trkpt lat="50.37455" lon="6.07716">
        <ele>378.578125</ele>
        <time>2012-04-13T18:38:14Z</time>
      </trkpt>
      <trkpt lat="50.37449" lon="6.0734">
        <ele>370.527344</ele>
        <time>2012-04-13T18:38:14Z</time>
      </trkpt>
      <trkpt lat="50.37499" lon="6.07217">
        <ele>372.042969</ele>
        <time>2012-04-13T18:38:14Z</time>
      </trkpt>
      <trkpt lat="50.37474" lon="6.07033">
        <ele>366.167969</ele>
        <time>2012-04-13T18:38:14Z</time>
      </trkpt>
      <trkpt lat="50.37455" lon="6.06864">
        <ele>368.335938</ele>
        <time>2012-04-13T18:38:14Z</time>
      </trkpt>
      <trkpt lat="50.37449" lon="6.0648">
        <ele>362.617188</ele>
        <time>2012-04-13T18:38:14Z</time>
      </trkpt>
      <trkpt lat="50.3753" lon="6.06296">
        <ele>359.792969</ele>
        <time>2012-04-13T18:38:14Z</time>
      </trkpt>
      <trkpt lat="50.37744" lon="6.05874">
        <ele>377.226562</ele>
        <time>2012-04-13T18:38:14Z</time>
      </trkpt>
      <trkpt lat="50.37719" lon="6.05667">
        <ele>366.566406</ele>
        <time>2012-04-13T18:38:14Z</time>
      </trkpt>
      <trkpt lat="50.37637" lon="6.05467">
        <ele>359.523438</ele>
        <time>2012-04-13T18:38:14Z</time>
      </trkpt>
      <trkpt lat="50.37562" lon="6.05429">
        <ele>354.117188</ele>
        <time>2012-04-13T18:38:14Z</time>
      </trkpt>
      <trkpt lat="50.37537" lon="6.05306">
        <ele>354.636719</ele>
        <time>2012-04-13T18:38:14Z</time>
      </trkpt>
      <trkpt lat="50.37543" lon="6.05137">
        <ele>355.914062</ele>
        <time>2012-04-13T18:38:14Z</time>
      </trkpt>
      <trkpt lat="50.37574" lon="6.05014">
        <ele>361.738281</ele>
        <time>2012-04-13T18:38:14Z</time>
      </trkpt>
      <trkpt lat="50.37524" lon="6.0496">
        <ele>362.964844</ele>
        <time>2012-04-13T18:38:14Z</time>
      </trkpt>
      <trkpt lat="50.37461" lon="6.04838">
        <ele>363.121094</ele>
        <time>2012-04-13T18:38:14Z</time>
      </trkpt>
      <trkpt lat="50.37417" lon="6.04692">
        <ele>361.835938</ele>
        <time>2012-04-13T18:38:14Z</time>
      </trkpt>
      <trkpt lat="50.37329" lon="6.045">
        <ele>360.863281</ele>
        <time>2012-04-13T18:38:14Z</time>
      </trkpt>
      <trkpt lat="50.37178" lon="6.04354">
        <ele>356.167969</ele>
        <time>2012-04-13T18:38:14Z</time>
      </trkpt>
      <trkpt lat="50.37046" lon="6.03978">
        <ele>347.828125</ele>
        <time>2012-04-13T18:38:14Z</time>
      </trkpt>
      <trkpt lat="50.37034" lon="6.03962">
        <ele>347.085938</ele>
        <time>2012-04-13T18:38:14Z</time>
      </trkpt>
      <trkpt lat="50.36946" lon="6.03571">
        <ele>347.835938</ele>
        <time>2012-04-13T18:38:14Z</time>
      </trkpt>
      <trkpt lat="50.36914" lon="6.03571">
        <ele>343.726562</ele>
        <time>2012-04-13T18:38:14Z</time>
      </trkpt>
      <trkpt lat="50.3688" lon="6.03561">
        <ele>339.949219</ele>
        <time>2012-04-13T18:38:14Z</time>
      </trkpt>
      <trkpt lat="50.3688" lon="6.03561">
        <ele>339.949219</ele>
        <time>2012-04-13T18:38:14Z</time>
      </trkpt>
      <trkpt lat="50.36875" lon="6.03581">
        <ele>339.757812</ele>
        <time>2012-04-13T18:38:14Z</time>
      </trkpt>
      <trkpt lat="50.36875" lon="6.03581">
        <ele>339.757812</ele>
        <time>2012-04-13T18:38:14Z</time>
      </trkpt>
      <trkpt lat="50.36864" lon="6.03591">
        <ele>338.691406</ele>
        <time>2012-04-13T18:38:14Z</time>
      </trkpt>
      <trkpt lat="50.36858" lon="6.0361">
        <ele>338.242188</ele>
        <time>2012-04-13T18:38:14Z</time>
      </trkpt>
      <trkpt lat="50.36848" lon="6.03624">
        <ele>337.527344</ele>
        <time>2012-04-13T18:38:14Z</time>
      </trkpt>
      <trkpt lat="50.36837" lon="6.03634">
        <ele>338.199219</ele>
        <time>2012-04-13T18:38:14Z</time>
      </trkpt>
      <trkpt lat="50.36823" lon="6.0364">
        <ele>338.863281</ele>
        <time>2012-04-13T18:38:14Z</time>
      </trkpt>
      <trkpt lat="50.36813" lon="6.0365">
        <ele>339.5</ele>
        <time>2012-04-13T18:38:14Z</time>
      </trkpt>
      <trkpt lat="50.36799" lon="6.03657">
        <ele>340.3125</ele>
        <time>2012-04-13T18:38:14Z</time>
      </trkpt>
      <trkpt lat="50.36786" lon="6.03663">
        <ele>341.476562</ele>
        <time>2012-04-13T18:38:14Z</time>
      </trkpt>
      <trkpt lat="50.36772" lon="6.03663">
        <ele>342.804688</ele>
        <time>2012-04-13T18:38:14Z</time>
      </trkpt>
      <trkpt lat="50.3677" lon="6.0364">
        <ele>342.566406</ele>
        <time>2012-04-13T18:38:14Z</time>
      </trkpt>
      <trkpt lat="50.36764" lon="6.0362">
        <ele>342.675781</ele>
        <time>2012-04-13T18:38:14Z</time>
      </trkpt>
      <trkpt lat="50.36761" lon="6.03597">
        <ele>342.457031</ele>
        <time>2012-04-13T18:38:14Z</time>
      </trkpt>
      <trkpt lat="50.36753" lon="6.03581">
        <ele>343.074219</ele>
        <time>2012-04-13T18:38:14Z</time>
      </trkpt>
      <trkpt lat="50.36753" lon="6.03555">
        <ele>341.984375</ele>
        <time>2012-04-13T18:38:14Z</time>
      </trkpt>
      <trkpt lat="50.36756" lon="6.03528">
        <ele>340.804688</ele>
        <time>2012-04-13T18:38:14Z</time>
      </trkpt>
      <trkpt lat="50.36751" lon="6.03508">
        <ele>341.4375</ele>
        <time>2012-04-13T18:38:14Z</time>
      </trkpt>
      <trkpt lat="50.36745" lon="6.03489">
        <ele>342.300781</ele>
        <time>2012-04-13T18:38:14Z</time>
      </trkpt>
      <trkpt lat="50.36745" lon="6.03462">
        <ele>342.316406</ele>
        <time>2012-04-13T18:38:14Z</time>
      </trkpt>
      <trkpt lat="50.36743" lon="6.03439">
        <ele>342.941406</ele>
        <time>2012-04-13T18:38:14Z</time>
      </trkpt>
      <trkpt lat="50.3674" lon="6.03416">
        <ele>343.484375</ele>
        <time>2012-04-13T18:38:14Z</time>
      </trkpt>
      <trkpt lat="50.3674" lon="6.0339">
        <ele>344.117188</ele>
        <time>2012-04-13T18:38:14Z</time>
      </trkpt>
      <trkpt lat="50.36743" lon="6.03367">
        <ele>344.101562</ele>
        <time>2012-04-13T18:38:14Z</time>
      </trkpt>
      <trkpt lat="50.36745" lon="6.03344">
        <ele>343.871094</ele>
        <time>2012-04-13T18:38:14Z</time>
      </trkpt>
      <trkpt lat="50.36753" lon="6.03324">
        <ele>342.367188</ele>
        <time>2012-04-13T18:38:14Z</time>
      </trkpt>
      <trkpt lat="50.36753" lon="6.03298">
        <ele>343.257812</ele>
        <time>2012-04-13T18:38:14Z</time>
      </trkpt>
      <trkpt lat="50.36759" lon="6.03275">
        <ele>343.183594</ele>
        <time>2012-04-13T18:38:14Z</time>
      </trkpt>
      <trkpt lat="50.36767" lon="6.03252">
        <ele>342.636719</ele>
        <time>2012-04-13T18:38:14Z</time>
      </trkpt>
      <trkpt lat="50.36775" lon="6.03232">
        <ele>342.167969</ele>
        <time>2012-04-13T18:38:14Z</time>
      </trkpt>
      <trkpt lat="50.36783" lon="6.03209">
        <ele>341.710938</ele>
        <time>2012-04-13T18:38:14Z</time>
      </trkpt>
      <trkpt lat="50.36791" lon="6.03189">
        <ele>340.929688</ele>
        <time>2012-04-13T18:38:14Z</time>
      </trkpt>
      <trkpt lat="50.36799" lon="6.03173">
        <ele>340.265625</ele>
        <time>2012-04-13T18:38:14Z</time>
      </trkpt>
      <trkpt lat="50.36807" lon="6.0316">
        <ele>339.554688</ele>
        <time>2012-04-13T18:38:14Z</time>
      </trkpt>
      <trkpt lat="50.36815" lon="6.03143">
        <ele>339.398438</ele>
        <time>2012-04-13T18:38:14Z</time>
      </trkpt>
      <trkpt lat="50.36826" lon="6.0313">
        <ele>338.875</ele>
        <time>2012-04-13T18:38:14Z</time>
      </trkpt>
      <trkpt lat="50.36834" lon="6.03117">
        <ele>338.332031</ele>
        <time>2012-04-13T18:38:14Z</time>
      </trkpt>
      <trkpt lat="50.36845" lon="6.03104">
        <ele>337.453125</ele>
        <time>2012-04-13T18:38:14Z</time>
      </trkpt>
      <trkpt lat="50.36856" lon="6.03094">
        <ele>336.988281</ele>
        <time>2012-04-13T18:38:14Z</time>
      </trkpt>
      <trkpt lat="50.36867" lon="6.03081">
        <ele>336.800781</ele>
        <time>2012-04-13T18:38:14Z</time>
      </trkpt>
      <trkpt lat="50.36858" lon="6.03074">
        <ele>337.257812</ele>
        <time>2012-04-13T18:38:14Z</time>
      </trkpt>
      <trkpt lat="50.36842" lon="6.03071">
        <ele>338.335938</ele>
        <time>2012-04-13T18:38:14Z</time>
      </trkpt>
      <trkpt lat="50.36829" lon="6.03061">
        <ele>339.609375</ele>
        <time>2012-04-13T18:38:14Z</time>
      </trkpt>
      <trkpt lat="50.36818" lon="6.03051">
        <ele>340.347656</ele>
        <time>2012-04-13T18:38:14Z</time>
      </trkpt>
      <trkpt lat="50.36802" lon="6.03048">
        <ele>341.441406</ele>
        <time>2012-04-13T18:38:14Z</time>
      </trkpt>
      <trkpt lat="50.36786" lon="6.03045">
        <ele>342.523438</ele>
        <time>2012-04-13T18:38:14Z</time>
      </trkpt>
      <trkpt lat="50.36772" lon="6.03035">
        <ele>342.988281</ele>
        <time>2012-04-13T18:38:14Z</time>
      </trkpt>
      <trkpt lat="50.36759" lon="6.03025">
        <ele>343.46875</ele>
        <time>2012-04-13T18:38:14Z</time>
      </trkpt>
      <trkpt lat="50.36743" lon="6.03018">
        <ele>344.375</ele>
        <time>2012-04-13T18:38:14Z</time>
      </trkpt>
      <trkpt lat="50.36732" lon="6.03008">
        <ele>344.1875</ele>
        <time>2012-04-13T18:38:14Z</time>
      </trkpt>
      <trkpt lat="50.36718" lon="6.03002">
        <ele>344.574219</ele>
        <time>2012-04-13T18:38:14Z</time>
      </trkpt>
      <trkpt lat="50.36708" lon="6.02992">
        <ele>344.386719</ele>
        <time>2012-04-13T18:38:14Z</time>
      </trkpt>
      <trkpt lat="50.36689" lon="6.02992">
        <ele>346.042969</ele>
        <time>2012-04-13T18:38:14Z</time>
      </trkpt>
      <trkpt lat="50.36683" lon="6.02985">
        <ele>345.941406</ele>
        <time>2012-04-13T18:38:14Z</time>
      </trkpt>
      <trkpt lat="50.36584" lon="6.02844">
        <ele>347.425781</ele>
        <time>2012-04-13T18:38:14Z</time>
      </trkpt>
      <trkpt lat="50.3654" lon="6.02791">
        <ele>348.1875</ele>
        <time>2012-04-13T18:38:14Z</time>
      </trkpt>
      <trkpt lat="50.36381" lon="6.0267">
        <ele>354.882812</ele>
        <time>2012-04-13T18:38:14Z</time>
      </trkpt>
      <trkpt lat="50.36072" lon="6.02679">
        <ele>365.957031</ele>
        <time>2012-04-13T18:38:14Z</time>
      </trkpt>
      <trkpt lat="50.35794" lon="6.02584">
        <ele>375.824219</ele>
        <time>2012-04-13T18:38:14Z</time>
      </trkpt>
      <trkpt lat="50.35533" lon="6.02344">
        <ele>376.707031</ele>
        <time>2012-04-13T18:38:14Z</time>
      </trkpt>
      <trkpt lat="50.355" lon="6.02334">
        <ele>377.121094</ele>
        <time>2012-04-13T18:38:14Z</time>
      </trkpt>
      <trkpt lat="50.35659" lon="6.02568">
        <ele>392.742188</ele>
        <time>2012-04-13T18:38:14Z</time>
      </trkpt>
      <trkpt lat="50.35772" lon="6.02656">
        <ele>391.085938</ele>
        <time>2012-04-13T18:38:14Z</time>
      </trkpt>
      <trkpt lat="50.35942" lon="6.02814">
        <ele>406.820312</ele>
        <time>2012-04-13T18:38:14Z</time>
      </trkpt>
      <trkpt lat="50.36217" lon="6.0291">
        <ele>414.980469</ele>
        <time>2012-04-13T18:38:14Z</time>
      </trkpt>
      <trkpt lat="50.36241" lon="6.02929">
        <ele>416.34375</ele>
        <time>2012-04-13T18:38:14Z</time>
      </trkpt>
      <trkpt lat="50.36104" lon="6.02923">
        <ele>421.539062</ele>
        <time>2012-04-13T18:38:14Z</time>
      </trkpt>
      <trkpt lat="50.36034" lon="6.02933">
        <ele>427.285156</ele>
        <time>2012-04-13T18:38:14Z</time>
      </trkpt>
      <trkpt lat="50.35934" lon="6.029">
        <ele>428.957031</ele>
        <time>2012-04-13T18:38:14Z</time>
      </trkpt>
      <trkpt lat="50.35791" lon="6.02824">
        <ele>432.574219</ele>
        <time>2012-04-13T18:38:14Z</time>
      </trkpt>
      <trkpt lat="50.35635" lon="6.02745">
        <ele>438.957031</ele>
        <time>2012-04-13T18:38:14Z</time>
      </trkpt>
      <trkpt lat="50.35557" lon="6.02679">
        <ele>436.84375</ele>
        <time>2012-04-13T18:38:14Z</time>
      </trkpt>
      <trkpt lat="50.355" lon="6.02673">
        <ele>438.941406</ele>
        <time>2012-04-13T18:38:14Z</time>
      </trkpt>
      <trkpt lat="50.35403" lon="6.02735">
        <ele>444.035156</ele>
        <time>2012-04-13T18:38:14Z</time>
      </trkpt>
      <trkpt lat="50.35328" lon="6.02762">
        <ele>445.324219</ele>
        <time>2012-04-13T18:38:14Z</time>
      </trkpt>
      <trkpt lat="50.35169" lon="6.02679">
        <ele>442.988281</ele>
        <time>2012-04-13T18:38:14Z</time>
      </trkpt>
      <trkpt lat="50.34926" lon="6.02617">
        <ele>438.929688</ele>
        <time>2012-04-13T18:38:14Z</time>
      </trkpt>
      <trkpt lat="50.34608" lon="6.0292">
        <ele>443.5625</ele>
        <time>2012-04-13T18:38:14Z</time>
      </trkpt>
      <trkpt lat="50.34543" lon="6.02992">
        <ele>446.0625</ele>
        <time>2012-04-13T18:38:14Z</time>
      </trkpt>
      <trkpt lat="50.345" lon="6.03008">
        <ele>446.507812</ele>
        <time>2012-04-13T18:38:14Z</time>
      </trkpt>
      <trkpt lat="50.34433" lon="6.02985">
        <ele>447.570312</ele>
        <time>2012-04-13T18:38:14Z</time>
      </trkpt>
      <trkpt lat="50.34366" lon="6.02962">
        <ele>448.414062</ele>
        <time>2012-04-13T18:38:14Z</time>
      </trkpt>
      <trkpt lat="50.34387" lon="6.03147">
        <ele>456.757812</ele>
        <time>2012-04-13T18:38:14Z</time>
      </trkpt>
      <trkpt lat="50.34433" lon="6.03439">
        <ele>473.710938</ele>
        <time>2012-04-13T18:38:14Z</time>
      </trkpt>
      <trkpt lat="50.3467" lon="6.03305">
        <ele>473.058594</ele>
        <time>2012-04-13T18:38:14Z</time>
      </trkpt>
      <trkpt lat="50.34732" lon="6.03673">
        <ele>504.34375</ele>
        <time>2012-04-13T18:38:14Z</time>
      </trkpt>
      <trkpt lat="50.34799" lon="6.03634">
        <ele>505.394531</ele>
        <time>2012-04-13T18:38:14Z</time>
      </trkpt>
      <trkpt lat="50.3491" lon="6.03535">
        <ele>504.929688</ele>
        <time>2012-04-13T18:38:14Z</time>
      </trkpt>
      <trkpt lat="50.35004" lon="6.03426">
        <ele>505.257812</ele>
        <time>2012-04-13T18:38:14Z</time>
      </trkpt>
      <trkpt lat="50.35042" lon="6.03393">
        <ele>505.582031</ele>
        <time>2012-04-13T18:38:14Z</time>
      </trkpt>
      <trkpt lat="50.35101" lon="6.0338">
        <ele>507.082031</ele>
        <time>2012-04-13T18:38:14Z</time>
      </trkpt>
      <trkpt lat="50.35104" lon="6.03568">
        <ele>517.351562</ele>
        <time>2012-04-13T18:38:14Z</time>
      </trkpt>
      <trkpt lat="50.35034" lon="6.03614">
        <ele>516.691406</ele>
        <time>2012-04-13T18:38:14Z</time>
      </trkpt>
      <trkpt lat="50.35047" lon="6.0389">
        <ele>527.519531</ele>
        <time>2012-04-13T18:38:14Z</time>
      </trkpt>
      <trkpt lat="50.34915" lon="6.03887">
        <ele>529.777344</ele>
        <time>2012-04-13T18:38:14Z</time>
      </trkpt>
      <trkpt lat="50.34783" lon="6.03972">
        <ele>529.949219</ele>
        <time>2012-04-13T18:38:14Z</time>
      </trkpt>
      <trkpt lat="50.34824" lon="6.04282">
        <ele>538.792969</ele>
        <time>2012-04-13T18:38:14Z</time>
      </trkpt>
      <trkpt lat="50.34719" lon="6.04315">
        <ele>539.464844</ele>
        <time>2012-04-13T18:38:14Z</time>
      </trkpt>
      <trkpt lat="50.34724" lon="6.04423">
        <ele>541.46875</ele>
        <time>2012-04-13T18:38:14Z</time>
      </trkpt>
      <trkpt lat="50.34775" lon="6.0514">
        <ele>509.417969</ele>
        <time>2012-04-13T18:38:14Z</time>
      </trkpt>
      <trkpt lat="50.34773" lon="6.05143">
        <ele>509.296875</ele>
        <time>2012-04-13T18:38:14Z</time>
      </trkpt>
      <trkpt lat="50.3472" lon="6.05154">
        <ele>511.871094</ele>
        <time>2012-04-13T18:38:14Z</time>
      </trkpt>
      <trkpt lat="50.34666" lon="6.05165">
        <ele>512.347656</ele>
        <time>2012-04-13T18:38:14Z</time>
      </trkpt>
      <trkpt lat="50.3463" lon="6.05198">
        <ele>509.839844</ele>
        <time>2012-04-13T18:38:14Z</time>
      </trkpt>
      <trkpt lat="50.34594" lon="6.05231">
        <ele>507.632812</ele>
        <time>2012-04-13T18:38:14Z</time>
      </trkpt>
      <trkpt lat="50.34585" lon="6.05318">
        <ele>503.882812</ele>
        <time>2012-04-13T18:38:14Z</time>
      </trkpt>
      <trkpt lat="50.34562" lon="6.05372">
        <ele>501.703125</ele>
        <time>2012-04-13T18:38:14Z</time>
      </trkpt>
      <trkpt lat="50.34508" lon="6.0535">
        <ele>499.078125</ele>
        <time>2012-04-13T18:38:14Z</time>
      </trkpt>
      <trkpt lat="50.34454" lon="6.05372">
        <ele>494.886719</ele>
        <time>2012-04-13T18:38:14Z</time>
      </trkpt>
      <trkpt lat="50.34427" lon="6.05438">
        <ele>492.789062</ele>
        <time>2012-04-13T18:38:14Z</time>
      </trkpt>
      <trkpt lat="50.34436" lon="6.05515">
        <ele>494.285156</ele>
        <time>2012-04-13T18:38:14Z</time>
      </trkpt>
      <trkpt lat="50.34463" lon="6.05569">
        <ele>498.117188</ele>
        <time>2012-04-13T18:38:14Z</time>
      </trkpt>
      <trkpt lat="50.34508" lon="6.05591">
        <ele>501.105469</ele>
        <time>2012-04-13T18:38:14Z</time>
      </trkpt>
      <trkpt lat="50.34508" lon="6.05591">
        <ele>501.105469</ele>
        <time>2012-04-13T18:38:14Z</time>
      </trkpt>
      <trkpt lat="50.34544" lon="6.05635">
        <ele>503.65625</ele>
        <time>2012-04-13T18:38:14Z</time>
      </trkpt>
      <trkpt lat="50.3458" lon="6.05679">
        <ele>505.101562</ele>
        <time>2012-04-13T18:38:14Z</time>
      </trkpt>
      <trkpt lat="50.34624" lon="6.05701">
        <ele>503.984375</ele>
        <time>2012-04-13T18:38:14Z</time>
      </trkpt>
      <trkpt lat="50.3466" lon="6.05734">
        <ele>502.699219</ele>
        <time>2012-04-13T18:38:14Z</time>
      </trkpt>
      <trkpt lat="50.34696" lon="6.05778">
        <ele>500.238281</ele>
        <time>2012-04-13T18:38:14Z</time>
      </trkpt>
      <trkpt lat="50.34687" lon="6.05854">
        <ele>503.0625</ele>
        <time>2012-04-13T18:38:14Z</time>
      </trkpt>
      <trkpt lat="50.34687" lon="6.05865">
        <ele>503.257812</ele>
        <time>2012-04-13T18:38:14Z</time>
      </trkpt>
      <trkpt lat="50.34702" lon="6.05889">
        <ele>502.101562</ele>
        <time>2012-04-13T18:38:14Z</time>
      </trkpt>
      <trkpt lat="50.34702" lon="6.05889">
        <ele>502.101562</ele>
        <time>2012-04-13T18:38:14Z</time>
      </trkpt>
      <trkpt lat="50.34648" lon="6.0591">
        <ele>508.371094</ele>
        <time>2012-04-13T18:38:14Z</time>
      </trkpt>
      <trkpt lat="50.34662" lon="6.05947">
        <ele>503.303</ele>
        <time>2012-04-13T17:54:40Z</time>
      </trkpt>
      <trkpt lat="50.34653" lon="6.05988">
        <ele>500.999</ele>
        <time>2012-04-13T17:54:42Z</time>
      </trkpt>
      <trkpt lat="50.34648" lon="6.06008">
        <ele>501.456</ele>
        <time>2012-04-13T17:54:43Z</time>
      </trkpt>
      <trkpt lat="50.34647" lon="6.06116">
        <ele>505.813</ele>
        <time>2012-04-13T17:54:48Z</time>
      </trkpt>
      <trkpt lat="50.34651" lon="6.06167">
        <ele>501.666</ele>
        <time>2012-04-13T17:54:50Z</time>
      </trkpt>
      <trkpt lat="50.34651" lon="6.06192">
        <ele>501.669</ele>
        <time>2012-04-13T17:54:51Z</time>
      </trkpt>
      <trkpt lat="50.34654" lon="6.06253">
        <ele>506.048</ele>
        <time>2012-04-13T17:54:54Z</time>
      </trkpt>
      <trkpt lat="50.34657" lon="6.06295">
        <ele>508.865</ele>
        <time>2012-04-13T17:54:57Z</time>
      </trkpt>
      <trkpt lat="50.34647" lon="6.06319">
        <ele>511.139</ele>
        <time>2012-04-13T17:55:01Z</time>
      </trkpt>
      <trkpt lat="50.34597" lon="6.06303">
        <ele>514.273</ele>
        <time>2012-04-13T17:55:07Z</time>
      </trkpt>
      <trkpt lat="50.34589" lon="6.06302">
        <ele>514.273</ele>
        <time>2012-04-13T17:55:08Z</time>
      </trkpt>
      <trkpt lat="50.34575" lon="6.06298">
        <ele>517.46</ele>
        <time>2012-04-13T17:55:10Z</time>
      </trkpt>
      <trkpt lat="50.34564" lon="6.06295">
        <ele>520.65</ele>
        <time>2012-04-13T17:55:12Z</time>
      </trkpt>
      <trkpt lat="50.34551" lon="6.06294">
        <ele>521.762</ele>
        <time>2012-04-13T17:55:14Z</time>
      </trkpt>
      <trkpt lat="50.34535" lon="6.06294">
        <ele>525.253</ele>
        <time>2012-04-13T17:55:16Z</time>
      </trkpt>
      <trkpt lat="50.34528" lon="6.06296">
        <ele>525.25</ele>
        <time>2012-04-13T17:55:17Z</time>
      </trkpt>
      <trkpt lat="50.34549" lon="6.06305">
        <ele>525.621094</ele>
        <time>2012-04-13T17:55:17Z</time>
      </trkpt>
      <trkpt lat="50.3454" lon="6.06272">
        <ele>526.230469</ele>
        <time>2012-04-13T17:55:17Z</time>
      </trkpt>
      <trkpt lat="50.34531" lon="6.06196">
        <ele>525.894531</ele>
        <time>2012-04-13T17:55:17Z</time>
      </trkpt>
      <trkpt lat="50.34558" lon="6.06141">
        <ele>522.628906</ele>
        <time>2012-04-13T17:55:17Z</time>
      </trkpt>
      <trkpt lat="50.34558" lon="6.06053">
        <ele>519.675781</ele>
        <time>2012-04-13T17:55:17Z</time>
      </trkpt>
      <trkpt lat="50.34558" lon="6.05965">
        <ele>516.117188</ele>
        <time>2012-04-13T17:55:17Z</time>
      </trkpt>
      <trkpt lat="50.34558" lon="6.05878">
        <ele>512.816406</ele>
        <time>2012-04-13T17:55:17Z</time>
      </trkpt>
      <trkpt lat="50.3454" lon="6.05812">
        <ele>510.109375</ele>
        <time>2012-04-13T17:55:17Z</time>
      </trkpt>
      <trkpt lat="50.34504" lon="6.05768">
        <ele>507.925781</ele>
        <time>2012-04-13T17:55:17Z</time>
      </trkpt>
      <trkpt lat="50.34459" lon="6.05757">
        <ele>506.046875</ele>
        <time>2012-04-13T17:55:17Z</time>
      </trkpt>
      <trkpt lat="50.3445" lon="6.05845">
        <ele>510.660156</ele>
        <time>2012-04-13T17:55:17Z</time>
      </trkpt>
      <trkpt lat="50.34441" lon="6.05921">
        <ele>514.832031</ele>
        <time>2012-04-13T17:55:17Z</time>
      </trkpt>
      <trkpt lat="50.34441" lon="6.06009">
        <ele>519.269531</ele>
        <time>2012-04-13T17:55:17Z</time>
      </trkpt>
      <trkpt lat="50.34432" lon="6.06097">
        <ele>522.636719</ele>
        <time>2012-04-13T17:55:17Z</time>
      </trkpt>
      <trkpt lat="50.34414" lon="6.06141">
        <ele>521.03125</ele>
        <time>2012-04-13T17:55:17Z</time>
      </trkpt>
      <trkpt lat="50.34378" lon="6.06108">
        <ele>513.816406</ele>
        <time>2012-04-13T17:55:17Z</time>
      </trkpt>
      <trkpt lat="50.34324" lon="6.06119">
        <ele>502.75</ele>
        <time>2012-04-13T17:55:17Z</time>
      </trkpt>
      <trkpt lat="50.34315" lon="6.06196">
        <ele>502.617188</ele>
        <time>2012-04-13T17:55:17Z</time>
      </trkpt>
      <trkpt lat="50.34306" lon="6.06261">
        <ele>501.496094</ele>
        <time>2012-04-13T17:55:17Z</time>
      </trkpt>
      <trkpt lat="50.34307" lon="6.06278">
        <ele>494.288</ele>
        <time>2012-04-13T17:56:01Z</time>
      </trkpt>
      <trkpt lat="50.34299" lon="6.06264">
        <ele>492.816</ele>
        <time>2012-04-13T17:56:04Z</time>
      </trkpt>
      <trkpt lat="50.34289" lon="6.06244">
        <ele>490.326</ele>
        <time>2012-04-13T17:56:08Z</time>
      </trkpt>
      <trkpt lat="50.34284" lon="6.06231">
        <ele>488.611</ele>
        <time>2012-04-13T17:56:10Z</time>
      </trkpt>
      <trkpt lat="50.34272" lon="6.06213">
        <ele>487.338</ele>
        <time>2012-04-13T17:56:13Z</time>
      </trkpt>
      <trkpt lat="50.3426" lon="6.06199">
        <ele>485.7</ele>
        <time>2012-04-13T17:56:16Z</time>
      </trkpt>
      <trkpt lat="50.34251" lon="6.06186">
        <ele>484.344</ele>
        <time>2012-04-13T17:56:19Z</time>
      </trkpt>
      <trkpt lat="50.34243" lon="6.06179">
        <ele>482.944</ele>
        <time>2012-04-13T17:56:22Z</time>
      </trkpt>
      <trkpt lat="50.34241" lon="6.06176">
        <ele>481.324</ele>
        <time>2012-04-13T17:56:24Z</time>
      </trkpt>
      <trkpt lat="50.34236" lon="6.06172">
        <ele>479.897</ele>
        <time>2012-04-13T17:56:26Z</time>
      </trkpt>
      <trkpt lat="50.3423" lon="6.06171">
        <ele>479.128</ele>
        <time>2012-04-13T17:56:28Z</time>
      </trkpt>
      <trkpt lat="50.34218" lon="6.06153">
        <ele>475.498</ele>
        <time>2012-04-13T17:56:32Z</time>
      </trkpt>
      <trkpt lat="50.34211" lon="6.06147">
        <ele>473.413</ele>
        <time>2012-04-13T17:56:36Z</time>
      </trkpt>
      <trkpt lat="50.34198" lon="6.06149">
        <ele>471.022</ele>
        <time>2012-04-13T17:56:40Z</time>
      </trkpt>
      <trkpt lat="50.34186" lon="6.0615">
        <ele>468.105</ele>
        <time>2012-04-13T17:56:44Z</time>
      </trkpt>
      <trkpt lat="50.34173" lon="6.06178">
        <ele>466.305</ele>
        <time>2012-04-13T17:56:48Z</time>
      </trkpt>
      <trkpt lat="50.34139" lon="6.06197">
        <ele>466.07</ele>
        <time>2012-04-13T17:56:51Z</time>
      </trkpt>
      <trkpt lat="50.34139" lon="6.06288">
        <ele>466.427</ele>
        <time>2012-04-13T17:56:57Z</time>
      </trkpt>
      <trkpt lat="50.3415" lon="6.06385">
        <ele>466.643</ele>
        <time>2012-04-13T17:57:03Z</time>
      </trkpt>
      <trkpt lat="50.3416" lon="6.06474">
        <ele>465.483</ele>
        <time>2012-04-13T17:57:09Z</time>
      </trkpt>
      <trkpt lat="50.34157" lon="6.0654">
        <ele>463.848</ele>
        <time>2012-04-13T17:57:12Z</time>
      </trkpt>
      <trkpt lat="50.34156" lon="6.06596">
        <ele>464.812</ele>
        <time>2012-04-13T17:57:15Z</time>
      </trkpt>
      <trkpt lat="50.34168" lon="6.06684">
        <ele>464.715</ele>
        <time>2012-04-13T17:57:19Z</time>
      </trkpt>
      <trkpt lat="50.34178" lon="6.06775">
        <ele>466.268</ele>
        <time>2012-04-13T17:57:23Z</time>
      </trkpt>
      <trkpt lat="50.34196" lon="6.06892">
        <ele>471.426</ele>
        <time>2012-04-13T17:57:28Z</time>
      </trkpt>
      <trkpt lat="50.34198" lon="6.06913">
        <ele>471.426</ele>
        <time>2012-04-13T17:57:29Z</time>
      </trkpt>
      <trkpt lat="50.34205" lon="6.0697">
        <ele>476.623</ele>
        <time>2012-04-13T17:57:32Z</time>
      </trkpt>
      <trkpt lat="50.34207" lon="6.06983">
        <ele>476.623</ele>
        <time>2012-04-13T17:57:33Z</time>
      </trkpt>
      <trkpt lat="50.34217" lon="6.07036">
        <ele>478.079</ele>
        <time>2012-04-13T17:57:37Z</time>
      </trkpt>
      <trkpt lat="50.34222" lon="6.07068">
        <ele>478.378</ele>
        <time>2012-04-13T17:57:39Z</time>
      </trkpt>
      <trkpt lat="50.34258" lon="6.07164">
        <ele>481.382</ele>
        <time>2012-04-13T17:57:46Z</time>
      </trkpt>
      <trkpt lat="50.34266" lon="6.07188">
        <ele>482.781</ele>
        <time>2012-04-13T17:57:48Z</time>
      </trkpt>
      <trkpt lat="50.34291" lon="6.07191">
        <ele>485.419</ele>
        <time>2012-04-13T17:57:52Z</time>
      </trkpt>
      <trkpt lat="50.34297" lon="6.0717">
        <ele>487.123</ele>
        <time>2012-04-13T17:57:54Z</time>
      </trkpt>
      <trkpt lat="50.34297" lon="6.07142">
        <ele>488.748</ele>
        <time>2012-04-13T17:57:56Z</time>
      </trkpt>
      <trkpt lat="50.34301" lon="6.07093">
        <ele>491.885</ele>
        <time>2012-04-13T17:57:59Z</time>
      </trkpt>
      <trkpt lat="50.34315" lon="6.07039">
        <ele>493.411</ele>
        <time>2012-04-13T17:58:02Z</time>
      </trkpt>
      <trkpt lat="50.34327" lon="6.07002">
        <ele>494.924</ele>
        <time>2012-04-13T17:58:04Z</time>
      </trkpt>
      <trkpt lat="50.34343" lon="6.06938">
        <ele>495.182</ele>
        <time>2012-04-13T17:58:07Z</time>
      </trkpt>
      <trkpt lat="50.34355" lon="6.06881">
        <ele>498.692</ele>
        <time>2012-04-13T17:58:10Z</time>
      </trkpt>
      <trkpt lat="50.34363" lon="6.06863">
        <ele>502.666</ele>
        <time>2012-04-13T17:58:11Z</time>
      </trkpt>
      <trkpt lat="50.3437" lon="6.06846">
        <ele>502.513</ele>
        <time>2012-04-13T17:58:12Z</time>
      </trkpt>
      <trkpt lat="50.34382" lon="6.06818">
        <ele>506.498</ele>
        <time>2012-04-13T17:58:14Z</time>
      </trkpt>
      <trkpt lat="50.34387" lon="6.06805">
        <ele>506.498</ele>
        <time>2012-04-13T17:58:15Z</time>
      </trkpt>
      <trkpt lat="50.34392" lon="6.06779">
        <ele>509.104</ele>
        <time>2012-04-13T17:58:17Z</time>
      </trkpt>
      <trkpt lat="50.34396" lon="6.06769">
        <ele>511.957</ele>
        <time>2012-04-13T17:58:18Z</time>
      </trkpt>
      <trkpt lat="50.34413" lon="6.06745">
        <ele>514.341</ele>
        <time>2012-04-13T17:58:21Z</time>
      </trkpt>
      <trkpt lat="50.34421" lon="6.0674">
        <ele>514.925</ele>
        <time>2012-04-13T17:58:22Z</time>
      </trkpt>
      <trkpt lat="50.34432" lon="6.06735">
        <ele>515.799</ele>
        <time>2012-04-13T17:58:24Z</time>
      </trkpt>
      <trkpt lat="50.34439" lon="6.06732">
        <ele>518.194</ele>
        <time>2012-04-13T17:58:26Z</time>
      </trkpt>
      <trkpt lat="50.3445" lon="6.06728">
        <ele>517.921</ele>
        <time>2012-04-13T17:58:29Z</time>
      </trkpt>
      <trkpt lat="50.34476" lon="6.06709">
        <ele>515.479</ele>
        <time>2012-04-13T17:58:33Z</time>
      </trkpt>
      <trkpt lat="50.34523" lon="6.06666">
        <ele>514.917</ele>
        <time>2012-04-13T17:58:42Z</time>
      </trkpt>
      <trkpt lat="50.34531" lon="6.06663">
        <ele>514.917</ele>
        <time>2012-04-13T17:58:43Z</time>
      </trkpt>
      <trkpt lat="50.34556" lon="6.06641">
        <ele>516.038</ele>
        <time>2012-04-13T17:58:48Z</time>
      </trkpt>
      <trkpt lat="50.34569" lon="6.066">
        <ele>517.084</ele>
        <time>2012-04-13T17:58:56Z</time>
      </trkpt>
      <trkpt lat="50.34576" lon="6.0658">
        <ele>516.511</ele>
        <time>2012-04-13T17:58:59Z</time>
      </trkpt>
      <trkpt lat="50.34584" lon="6.06552">
        <ele>516.728</ele>
        <time>2012-04-13T17:59:03Z</time>
      </trkpt>
      <trkpt lat="50.34593" lon="6.06548">
        <ele>516.134</ele>
        <time>2012-04-13T17:59:10Z</time>
      </trkpt>
      <trkpt lat="50.34614" lon="6.06567">
        <ele>513.402</ele>
        <time>2012-04-13T17:59:15Z</time>
      </trkpt>
      <trkpt lat="50.34624" lon="6.06578">
        <ele>511.819</ele>
        <time>2012-04-13T17:59:18Z</time>
      </trkpt>
      <trkpt lat="50.34634" lon="6.06591">
        <ele>510.879</ele>
        <time>2012-04-13T17:59:20Z</time>
      </trkpt>
      <trkpt lat="50.34641" lon="6.06604">
        <ele>509.47</ele>
        <time>2012-04-13T17:59:22Z</time>
      </trkpt>
      <trkpt lat="50.34664" lon="6.06634">
        <ele>504.92</ele>
        <time>2012-04-13T17:59:28Z</time>
      </trkpt>
      <trkpt lat="50.34668" lon="6.0664">
        <ele>504.92</ele>
        <time>2012-04-13T17:59:29Z</time>
      </trkpt>
      <trkpt lat="50.34686" lon="6.06662">
        <ele>501.794</ele>
        <time>2012-04-13T17:59:33Z</time>
      </trkpt>
      <trkpt lat="50.34689" lon="6.06666">
        <ele>501.794</ele>
        <time>2012-04-13T17:59:34Z</time>
      </trkpt>
      <trkpt lat="50.34694" lon="6.06678">
        <ele>500.349</ele>
        <time>2012-04-13T17:59:36Z</time>
      </trkpt>
      <trkpt lat="50.34697" lon="6.06684">
        <ele>499.313</ele>
        <time>2012-04-13T17:59:37Z</time>
      </trkpt>
      <trkpt lat="50.34704" lon="6.06711">
        <ele>496.597</ele>
        <time>2012-04-13T17:59:41Z</time>
      </trkpt>
      <trkpt lat="50.34716" lon="6.06736">
        <ele>493.21</ele>
        <time>2012-04-13T17:59:44Z</time>
      </trkpt>
      <trkpt lat="50.3472" lon="6.06743">
        <ele>493.21</ele>
        <time>2012-04-13T17:59:45Z</time>
      </trkpt>
      <trkpt lat="50.34728" lon="6.06767">
        <ele>491.851</ele>
        <time>2012-04-13T17:59:48Z</time>
      </trkpt>
      <trkpt lat="50.34741" lon="6.06795">
        <ele>489.658</ele>
        <time>2012-04-13T17:59:52Z</time>
      </trkpt>
      <trkpt lat="50.34753" lon="6.06817">
        <ele>487.259</ele>
        <time>2012-04-13T17:59:55Z</time>
      </trkpt>
      <trkpt lat="50.34767" lon="6.06849">
        <ele>484.5</ele>
        <time>2012-04-13T17:59:59Z</time>
      </trkpt>
      <trkpt lat="50.34779" lon="6.06877">
        <ele>481.351</ele>
        <time>2012-04-13T18:00:03Z</time>
      </trkpt>
      <trkpt lat="50.34783" lon="6.06886">
        <ele>481.351</ele>
        <time>2012-04-13T18:00:04Z</time>
      </trkpt>
      <trkpt lat="50.34796" lon="6.06918">
        <ele>479.414</ele>
        <time>2012-04-13T18:00:08Z</time>
      </trkpt>
      <trkpt lat="50.34807" lon="6.06922">
        <ele>477.06</ele>
        <time>2012-04-13T18:00:11Z</time>
      </trkpt>
      <trkpt lat="50.34812" lon="6.06917">
        <ele>475.363</ele>
        <time>2012-04-13T18:00:12Z</time>
      </trkpt>
      <trkpt lat="50.34852" lon="6.06868">
        <ele>472.726</ele>
        <time>2012-04-13T18:00:20Z</time>
      </trkpt>
      <trkpt lat="50.34881" lon="6.06837">
        <ele>472.367</ele>
        <time>2012-04-13T18:00:27Z</time>
      </trkpt>
      <trkpt lat="50.34928" lon="6.06784">
        <ele>468.573</ele>
        <time>2012-04-13T18:00:41Z</time>
      </trkpt>
      <trkpt lat="50.34945" lon="6.0675">
        <ele>465.328</ele>
        <time>2012-04-13T18:00:45Z</time>
      </trkpt>
      <trkpt lat="50.34952" lon="6.06737">
        <ele>465.328</ele>
        <time>2012-04-13T18:00:46Z</time>
      </trkpt>
      <trkpt lat="50.34971" lon="6.06701">
        <ele>461.792</ele>
        <time>2012-04-13T18:00:48Z</time>
      </trkpt>
      <trkpt lat="50.34985" lon="6.0668">
        <ele>463.634</ele>
        <time>2012-04-13T18:00:50Z</time>
      </trkpt>
      <trkpt lat="50.35004" lon="6.06681">
        <ele>460.979</ele>
        <time>2012-04-13T18:00:52Z</time>
      </trkpt>
      <trkpt lat="50.35048" lon="6.06707">
        <ele>456.96</ele>
        <time>2012-04-13T18:00:56Z</time>
      </trkpt>
      <trkpt lat="50.35055" lon="6.06716">
        <ele>455.638</ele>
        <time>2012-04-13T18:00:57Z</time>
      </trkpt>
      <trkpt lat="50.35074" lon="6.06772">
        <ele>448.771</ele>
        <time>2012-04-13T18:01:01Z</time>
      </trkpt>
      <trkpt lat="50.35082" lon="6.06871">
        <ele>446.554</ele>
        <time>2012-04-13T18:01:06Z</time>
      </trkpt>
      <trkpt lat="50.35081" lon="6.06889">
        <ele>445.854</ele>
        <time>2012-04-13T18:01:07Z</time>
      </trkpt>
      <trkpt lat="50.35071" lon="6.0696">
        <ele>443.895</ele>
        <time>2012-04-13T18:01:11Z</time>
      </trkpt>
      <trkpt lat="50.35068" lon="6.06973">
        <ele>445.519</ele>
        <time>2012-04-13T18:01:12Z</time>
      </trkpt>
      <trkpt lat="50.35066" lon="6.06996">
        <ele>449.067</ele>
        <time>2012-04-13T18:01:16Z</time>
      </trkpt>
      <trkpt lat="50.35066" lon="6.07022">
        <ele>447.747</ele>
        <time>2012-04-13T18:01:19Z</time>
      </trkpt>
      <trkpt lat="50.35055" lon="6.07065">
        <ele>442.392</ele>
        <time>2012-04-13T18:01:22Z</time>
      </trkpt>
      <trkpt lat="50.3505" lon="6.07078">
        <ele>442.396</ele>
        <time>2012-04-13T18:01:23Z</time>
      </trkpt>
      <trkpt lat="50.35033" lon="6.07154">
        <ele>441.323</ele>
        <time>2012-04-13T18:01:30Z</time>
      </trkpt>
      <trkpt lat="50.35032" lon="6.07181">
        <ele>439.892</ele>
        <time>2012-04-13T18:01:32Z</time>
      </trkpt>
      <trkpt lat="50.35037" lon="6.07249">
        <ele>444.135</ele>
        <time>2012-04-13T18:01:36Z</time>
      </trkpt>
      <trkpt lat="50.3504" lon="6.07266">
        <ele>444.139</ele>
        <time>2012-04-13T18:01:37Z</time>
      </trkpt>
      <trkpt lat="50.35044" lon="6.07281">
        <ele>447.435</ele>
        <time>2012-04-13T18:01:38Z</time>
      </trkpt>
      <trkpt lat="50.35056" lon="6.07306">
        <ele>447.438</ele>
        <time>2012-04-13T18:01:40Z</time>
      </trkpt>
      <trkpt lat="50.35066" lon="6.07307">
        <ele>453.262</ele>
        <time>2012-04-13T18:01:43Z</time>
      </trkpt>
      <trkpt lat="50.35077" lon="6.0729">
        <ele>456.769</ele>
        <time>2012-04-13T18:01:45Z</time>
      </trkpt>
      <trkpt lat="50.35102" lon="6.07205">
        <ele>458.346</ele>
        <time>2012-04-13T18:01:50Z</time>
      </trkpt>
      <trkpt lat="50.35108" lon="6.07189">
        <ele>457.255</ele>
        <time>2012-04-13T18:01:51Z</time>
      </trkpt>
      <trkpt lat="50.35121" lon="6.07162">
        <ele>457.255</ele>
        <time>2012-04-13T18:01:53Z</time>
      </trkpt>
      <trkpt lat="50.35145" lon="6.07128">
        <ele>456.367</ele>
        <time>2012-04-13T18:01:56Z</time>
      </trkpt>
      <trkpt lat="50.35192" lon="6.07077">
        <ele>456.296</ele>
        <time>2012-04-13T18:02:02Z</time>
      </trkpt>
      <trkpt lat="50.35211" lon="6.07062">
        <ele>452.742</ele>
        <time>2012-04-13T18:02:04Z</time>
      </trkpt>
      <trkpt lat="50.35236" lon="6.07026">
        <ele>444.646</ele>
        <time>2012-04-13T18:02:08Z</time>
      </trkpt>
      <trkpt lat="50.35242" lon="6.07019">
        <ele>444.646</ele>
        <time>2012-04-13T18:02:09Z</time>
      </trkpt>
      <trkpt lat="50.35257" lon="6.06995">
        <ele>443.549</ele>
        <time>2012-04-13T18:02:12Z</time>
      </trkpt>
      <trkpt lat="50.35265" lon="6.06978">
        <ele>442.402</ele>
        <time>2012-04-13T18:02:14Z</time>
      </trkpt>
      <trkpt lat="50.3527" lon="6.06961">
        <ele>441.932</ele>
        <time>2012-04-13T18:02:16Z</time>
      </trkpt>
      <trkpt lat="50.3529" lon="6.06918">
        <ele>439.21</ele>
        <time>2012-04-13T18:02:21Z</time>
      </trkpt>
      <trkpt lat="50.35338" lon="6.06797">
        <ele>437.345</ele>
        <time>2012-04-13T18:02:32Z</time>
      </trkpt>
      <trkpt lat="50.35364" lon="6.06681">
        <ele>433.662</ele>
        <time>2012-04-13T18:02:40Z</time>
      </trkpt>
      <trkpt lat="50.3537" lon="6.06628">
        <ele>434.05</ele>
        <time>2012-04-13T18:02:43Z</time>
      </trkpt>
      <trkpt lat="50.35378" lon="6.06553">
        <ele>434.37</ele>
        <time>2012-04-13T18:02:47Z</time>
      </trkpt>
      <trkpt lat="50.35398" lon="6.0651">
        <ele>440.165</ele>
        <time>2012-04-13T18:02:50Z</time>
      </trkpt>
      <trkpt lat="50.35406" lon="6.06498">
        <ele>440.16</ele>
        <time>2012-04-13T18:02:51Z</time>
      </trkpt>
      <trkpt lat="50.35426" lon="6.06479">
        <ele>440.458</ele>
        <time>2012-04-13T18:02:53Z</time>
      </trkpt>
      <trkpt lat="50.35478" lon="6.06359">
        <ele>441.701</ele>
        <time>2012-04-13T18:03:02Z</time>
      </trkpt>
      <trkpt lat="50.35492" lon="6.06341">
        <ele>444.271</ele>
        <time>2012-04-13T18:03:04Z</time>
      </trkpt>
      <trkpt lat="50.35501" lon="6.06333">
        <ele>445.678</ele>
        <time>2012-04-13T18:03:06Z</time>
      </trkpt>
      <trkpt lat="50.3551" lon="6.06316">
        <ele>445.975</ele>
        <time>2012-04-13T18:03:10Z</time>
      </trkpt>
      <trkpt lat="50.3552" lon="6.06299">
        <ele>444.444</ele>
        <time>2012-04-13T18:03:14Z</time>
      </trkpt>
      <trkpt lat="50.35526" lon="6.06287">
        <ele>442.959</ele>
        <time>2012-04-13T18:03:17Z</time>
      </trkpt>
      <trkpt lat="50.35524" lon="6.06268">
        <ele>440.873</ele>
        <time>2012-04-13T18:03:21Z</time>
      </trkpt>
      <trkpt lat="50.35534" lon="6.06244">
        <ele>437.734</ele>
        <time>2012-04-13T18:03:27Z</time>
      </trkpt>
      <trkpt lat="50.35541" lon="6.06238">
        <ele>436.932</ele>
        <time>2012-04-13T18:03:29Z</time>
      </trkpt>
      <trkpt lat="50.3556" lon="6.06197">
        <ele>435.36</ele>
        <time>2012-04-13T18:03:41Z</time>
      </trkpt>
      <trkpt lat="50.35566" lon="6.06192">
        <ele>434.61</ele>
        <time>2012-04-13T18:03:45Z</time>
      </trkpt>
      <trkpt lat="50.35567" lon="6.06191">
        <ele>433.454</ele>
        <time>2012-04-13T18:03:47Z</time>
      </trkpt>
      <trkpt lat="50.35569" lon="6.06186">
        <ele>433.222</ele>
        <time>2012-04-13T18:03:49Z</time>
      </trkpt>
      <trkpt lat="50.35564" lon="6.0616">
        <ele>428.356</ele>
        <time>2012-04-13T18:03:57Z</time>
      </trkpt>
      <trkpt lat="50.35562" lon="6.06154">
        <ele>428.348</ele>
        <time>2012-04-13T18:03:58Z</time>
      </trkpt>
      <trkpt lat="50.35559" lon="6.06145">
        <ele>427.217</ele>
        <time>2012-04-13T18:04:00Z</time>
      </trkpt>
      <trkpt lat="50.35545" lon="6.06129">
        <ele>424.367</ele>
        <time>2012-04-13T18:04:04Z</time>
      </trkpt>
      <trkpt lat="50.35556" lon="6.06084">
        <ele>420.751</ele>
        <time>2012-04-13T18:04:08Z</time>
      </trkpt>
      <trkpt lat="50.35567" lon="6.06046">
        <ele>417.549</ele>
        <time>2012-04-13T18:04:10Z</time>
      </trkpt>
      <trkpt lat="50.35574" lon="6.0601">
        <ele>416.263</ele>
        <time>2012-04-13T18:04:12Z</time>
      </trkpt>
      <trkpt lat="50.35577" lon="6.05997">
        <ele>418.592</ele>
        <time>2012-04-13T18:04:13Z</time>
      </trkpt>
      <trkpt lat="50.35604" lon="6.05924">
        <ele>415.277</ele>
        <time>2012-04-13T18:04:18Z</time>
      </trkpt>
      <trkpt lat="50.35613" lon="6.05905">
        <ele>415.272</ele>
        <time>2012-04-13T18:04:19Z</time>
      </trkpt>
      <trkpt lat="50.35643" lon="6.05839">
        <ele>411.752</ele>
        <time>2012-04-13T18:04:22Z</time>
      </trkpt>
      <trkpt lat="50.35654" lon="6.05816">
        <ele>405.95</ele>
        <time>2012-04-13T18:04:23Z</time>
      </trkpt>
      <trkpt lat="50.35664" lon="6.05795">
        <ele>409.377</ele>
        <time>2012-04-13T18:04:24Z</time>
      </trkpt>
      <trkpt lat="50.35682" lon="6.05756">
        <ele>409.177</ele>
        <time>2012-04-13T18:04:26Z</time>
      </trkpt>
      <trkpt lat="50.35737" lon="6.05675">
        <ele>412.836</ele>
        <time>2012-04-13T18:04:33Z</time>
      </trkpt>
      <trkpt lat="50.35753" lon="6.05678">
        <ele>414.327</ele>
        <time>2012-04-13T18:04:36Z</time>
      </trkpt>
      <trkpt lat="50.35759" lon="6.05682">
        <ele>414.58</ele>
        <time>2012-04-13T18:04:49Z</time>
      </trkpt>
      <trkpt lat="50.35757" lon="6.0568">
        <ele>414.694</ele>
        <time>2012-04-13T18:05:57Z</time>
      </trkpt>
      <trkpt lat="50.35757" lon="6.05682">
        <ele>414.35</ele>
        <time>2012-04-13T18:07:15Z</time>
      </trkpt>
      <trkpt lat="50.35756" lon="6.05681">
        <ele>413.475</ele>
        <time>2012-04-13T18:07:42Z</time>
      </trkpt>
      <trkpt lat="50.35757" lon="6.05684">
        <ele>415.629</ele>
        <time>2012-04-13T18:07:44Z</time>
      </trkpt>
      <trkpt lat="50.35767" lon="6.05691">
        <ele>417.521</ele>
        <time>2012-04-13T18:07:52Z</time>
      </trkpt>
      <trkpt lat="50.3578" lon="6.05695">
        <ele>419.385</ele>
        <time>2012-04-13T18:07:59Z</time>
      </trkpt>
      <trkpt lat="50.35787" lon="6.05699">
        <ele>421.289</ele>
        <time>2012-04-13T18:08:05Z</time>
      </trkpt>
      <trkpt lat="50.35793" lon="6.05702">
        <ele>423.103</ele>
        <time>2012-04-13T18:08:10Z</time>
      </trkpt>
      <trkpt lat="50.35806" lon="6.05707">
        <ele>425.61</ele>
        <time>2012-04-13T18:08:17Z</time>
      </trkpt>
      <trkpt lat="50.35813" lon="6.05708">
        <ele>427.717</ele>
        <time>2012-04-13T18:08:21Z</time>
      </trkpt>
      <trkpt lat="50.35817" lon="6.0571">
        <ele>428.41</ele>
        <time>2012-04-13T18:08:23Z</time>
      </trkpt>
      <trkpt lat="50.35831" lon="6.05721">
        <ele>429.466</ele>
        <time>2012-04-13T18:08:27Z</time>
      </trkpt>
      <trkpt lat="50.35849" lon="6.0571">
        <ele>428.037</ele>
        <time>2012-04-13T18:08:31Z</time>
      </trkpt>
      <trkpt lat="50.35874" lon="6.05744">
        <ele>431.987</ele>
        <time>2012-04-13T18:08:36Z</time>
      </trkpt>
      <trkpt lat="50.35877" lon="6.05752">
        <ele>430.108</ele>
        <time>2012-04-13T18:08:38Z</time>
      </trkpt>
      <trkpt lat="50.35873" lon="6.05763">
        <ele>433.717</ele>
        <time>2012-04-13T18:08:41Z</time>
      </trkpt>
      <trkpt lat="50.35873" lon="6.05763">
        <ele>433.717</ele>
        <time>2012-04-13T18:08:41Z</time>
      </trkpt>
      <trkpt lat="50.35874" lon="6.05764">
        <ele>433.852</ele>
        <time>2012-04-13T18:08:42Z</time>
      </trkpt>
      <trkpt lat="50.35864" lon="6.05789">
        <ele>429.592</ele>
        <time>2012-04-13T18:08:55Z</time>
      </trkpt>
      <trkpt lat="50.35856" lon="6.05802">
        <ele>429.592</ele>
        <time>2012-04-13T18:08:57Z</time>
      </trkpt>
    </trkseg>
  </trk>
</gpx>